<?xml version="1.0" encoding="UTF-8" standalone="no" ?>
<gpx xmlns="http://www.topografix.com/GPX/1/1" xmlns:xsi="http://www.w3.org/2001/XMLSchema-instance" xsi:schemaLocation="http://www.topografix.com/GPX/1/1 http://www.topografix.com/GPX/1/1/gpx.xsd" version="1.1" creator="VisuGPX - https://www.visugpx.com">
  <metadata>
    <name>Boucle Auteuil-le-Roi par Thoiry (78)</name>
    <desc><![CDATA[Randonnée de 20 km à partir d'Auteuil le Roi

]]></desc>
  </metadata>
  <wpt lat="48.84336" lon="1.81504">
    <ele>137.41</ele>
    <name><![CDATA[0000394]]></name>
    <type><![CDATA[Point de départ]]></type>
  </wpt>
  <wpt lat="48.84336" lon="1.81504">
    <ele>137.41</ele>
    <name><![CDATA[0000394]]></name>
    <type><![CDATA[Point de départ]]></type>
  </wpt>
  <wpt lat="48.86408" lon="1.76348">
    <ele>147.9</ele>
    <name><![CDATA[tirs]]></name>
    <type><![CDATA[Jalon]]></type>
  </wpt>
  <wpt lat="48.84344" lon="1.81497">
    <ele>130.82</ele>
    <name><![CDATA[0000397]]></name>
    <desc><![CDATA[<p><br /><h3>Nom: Segment: 1</h3><br />Heure de départ: 08:55 1 août 2021<br/>Heure d'arrivée: 15:45 1 août 2021<br/>Distance: 20km (06:49)<br/>Temps déplacement: 05:56<br/>Vitesse moyenne: 2,93 km/h<br/>Vitesse moyenne mouv.: 3,36 km/h<br/>Vitesse Max.: 7,87 km/h<br/>Altitude minimale: 88 m<br/>Altitude maximale: 189 m<br/>Vitesse de montée: 151,4 m/h<br/>Vitesse de descente: 145,9 m/h<br/>Gain d'altitude: 347 m<br/>Perte d'altitude: 361 m<br/>Temps de montée: 02:17<br/>Temps de descente: 02:28<br/></p>]]></desc>
    <type><![CDATA[Point d'arrivée]]></type>
  </wpt>
  <trk>
    <name><![CDATA[2021-08-01 08:55:50]]></name>
    <desc><![CDATA[<p>Heure de départ: 08:55 1 août 2021<br/>Heure d'arrivée: 15:45 1 août 2021<br/>Distance: 20 km (06:49)<br/>Temps déplacement: 05:56<br/>Vitesse moyenne: 2,93 km/h<br/>Vitesse moyenne mouv.: 3,36 km/h<br/>Vitesse Max.: 7,87 km/h<br/>Altitude minimale: 88 m<br/>Altitude maximale: 189 m<br/>Vitesse de montée: 151,4 m/h<br/>Vitesse de descente: 145,9 m/h<br/>Gain d'altitude: 347 m<br/>Perte d'altitude: 361 m<br/>Temps de montée: 02:17<br/>Temps de descente: 02:28<br/></p><hr align="center" width="480" style="height: 2px; width: 517px"/>]]></desc>
    <trkseg>
      <trkpt lat="48.84336" lon="1.81504">
        <ele>137.41</ele>
        <time>2021-08-01T06:55:52.221Z</time>
      </trkpt>
      <trkpt lat="48.84349" lon="1.81524">
        <ele>131.76</ele>
        <time>2021-08-01T06:59:56.999Z</time>
      </trkpt>
      <trkpt lat="48.84369" lon="1.81522">
        <ele>132.69</ele>
        <time>2021-08-01T07:00:10.999Z</time>
      </trkpt>
      <trkpt lat="48.84387" lon="1.81526">
        <ele>133.02</ele>
        <time>2021-08-01T07:00:32.999Z</time>
      </trkpt>
      <trkpt lat="48.84407" lon="1.81528">
        <ele>132.82</ele>
        <time>2021-08-01T07:00:49.999Z</time>
      </trkpt>
      <trkpt lat="48.84425" lon="1.8153">
        <ele>132.97</ele>
        <time>2021-08-01T07:01:06.999Z</time>
      </trkpt>
      <trkpt lat="48.84443" lon="1.81533">
        <ele>132.03</ele>
        <time>2021-08-01T07:01:27.999Z</time>
      </trkpt>
      <trkpt lat="48.84462" lon="1.81539">
        <ele>131.45</ele>
        <time>2021-08-01T07:01:41.999Z</time>
      </trkpt>
      <trkpt lat="48.84482" lon="1.8154">
        <ele>132</ele>
        <time>2021-08-01T07:01:58.999Z</time>
      </trkpt>
      <trkpt lat="48.84501" lon="1.81539">
        <ele>132.4</ele>
        <time>2021-08-01T07:02:12.999Z</time>
      </trkpt>
      <trkpt lat="48.84521" lon="1.81538">
        <ele>132.79</ele>
        <time>2021-08-01T07:02:29.999Z</time>
      </trkpt>
      <trkpt lat="48.84538" lon="1.81535">
        <ele>132.13</ele>
        <time>2021-08-01T07:02:53.999Z</time>
      </trkpt>
      <trkpt lat="48.84558" lon="1.81533">
        <ele>131.69</ele>
        <time>2021-08-01T07:03:06.999Z</time>
      </trkpt>
      <trkpt lat="48.84578" lon="1.8153">
        <ele>131.13</ele>
        <time>2021-08-01T07:03:25.999Z</time>
      </trkpt>
      <trkpt lat="48.84596" lon="1.81526">
        <ele>129.98</ele>
        <time>2021-08-01T07:03:41.999Z</time>
      </trkpt>
      <trkpt lat="48.84615" lon="1.81524">
        <ele>129.01</ele>
        <time>2021-08-01T07:04:02.000Z</time>
      </trkpt>
      <trkpt lat="48.84634" lon="1.81527">
        <ele>128.68</ele>
        <time>2021-08-01T07:04:15.000Z</time>
      </trkpt>
      <trkpt lat="48.84651" lon="1.81535">
        <ele>129.64</ele>
        <time>2021-08-01T07:04:29.000Z</time>
      </trkpt>
      <trkpt lat="48.84671" lon="1.81533">
        <ele>131.85</ele>
        <time>2021-08-01T07:04:47.000Z</time>
      </trkpt>
      <trkpt lat="48.84689" lon="1.81536">
        <ele>135.39</ele>
        <time>2021-08-01T07:05:02.000Z</time>
      </trkpt>
      <trkpt lat="48.84707" lon="1.81542">
        <ele>139.19</ele>
        <time>2021-08-01T07:05:18.000Z</time>
      </trkpt>
      <trkpt lat="48.84726" lon="1.81542">
        <ele>140.71</ele>
        <time>2021-08-01T07:05:33.000Z</time>
      </trkpt>
      <trkpt lat="48.84745" lon="1.81539">
        <ele>140.82</ele>
        <time>2021-08-01T07:05:50.000Z</time>
      </trkpt>
      <trkpt lat="48.84764" lon="1.81538">
        <ele>140.68</ele>
        <time>2021-08-01T07:06:01.000Z</time>
      </trkpt>
      <trkpt lat="48.84782" lon="1.81536">
        <ele>140.31</ele>
        <time>2021-08-01T07:06:33.000Z</time>
      </trkpt>
      <trkpt lat="48.84801" lon="1.81536">
        <ele>139.26</ele>
        <time>2021-08-01T07:06:54.000Z</time>
      </trkpt>
      <trkpt lat="48.84822" lon="1.81534">
        <ele>138.74</ele>
        <time>2021-08-01T07:07:25.000Z</time>
      </trkpt>
      <trkpt lat="48.8484" lon="1.81534">
        <ele>138.62</ele>
        <time>2021-08-01T07:07:40.000Z</time>
      </trkpt>
      <trkpt lat="48.84859" lon="1.81535">
        <ele>138.77</ele>
        <time>2021-08-01T07:07:56.000Z</time>
      </trkpt>
      <trkpt lat="48.84879" lon="1.81533">
        <ele>138.99</ele>
        <time>2021-08-01T07:08:16.000Z</time>
      </trkpt>
      <trkpt lat="48.84897" lon="1.81522">
        <ele>139.96</ele>
        <time>2021-08-01T07:08:30.000Z</time>
      </trkpt>
      <trkpt lat="48.84914" lon="1.81513">
        <ele>141.43</ele>
        <time>2021-08-01T07:08:50.000Z</time>
      </trkpt>
      <trkpt lat="48.84932" lon="1.81503">
        <ele>142.68</ele>
        <time>2021-08-01T07:09:12.000Z</time>
      </trkpt>
      <trkpt lat="48.8495" lon="1.81501">
        <ele>144.82</ele>
        <time>2021-08-01T07:09:24.000Z</time>
      </trkpt>
      <trkpt lat="48.84966" lon="1.81489">
        <ele>149.88</ele>
        <time>2021-08-01T07:09:44.000Z</time>
      </trkpt>
      <trkpt lat="48.84979" lon="1.81469">
        <ele>153</ele>
        <time>2021-08-01T07:10:01.000Z</time>
      </trkpt>
      <trkpt lat="48.84994" lon="1.81452">
        <ele>156.51</ele>
        <time>2021-08-01T07:10:18.000Z</time>
      </trkpt>
      <trkpt lat="48.85008" lon="1.81435">
        <ele>160.04</ele>
        <time>2021-08-01T07:10:33.000Z</time>
      </trkpt>
      <trkpt lat="48.85027" lon="1.8143">
        <ele>163.92</ele>
        <time>2021-08-01T07:11:01.000Z</time>
      </trkpt>
      <trkpt lat="48.85045" lon="1.81425">
        <ele>163.52</ele>
        <time>2021-08-01T07:11:12.000Z</time>
      </trkpt>
      <trkpt lat="48.85061" lon="1.81415">
        <ele>163.1</ele>
        <time>2021-08-01T07:11:41.000Z</time>
      </trkpt>
      <trkpt lat="48.85081" lon="1.81407">
        <ele>163.92</ele>
        <time>2021-08-01T07:11:58.000Z</time>
      </trkpt>
      <trkpt lat="48.85099" lon="1.81412">
        <ele>162.67</ele>
        <time>2021-08-01T07:12:22.000Z</time>
      </trkpt>
      <trkpt lat="48.85104" lon="1.81386">
        <ele>165.5</ele>
        <time>2021-08-01T07:13:26.000Z</time>
      </trkpt>
      <trkpt lat="48.85123" lon="1.81384">
        <ele>170.05</ele>
        <time>2021-08-01T07:17:24.999Z</time>
      </trkpt>
      <trkpt lat="48.85139" lon="1.81368">
        <ele>170.16</ele>
        <time>2021-08-01T07:17:49.999Z</time>
      </trkpt>
      <trkpt lat="48.85153" lon="1.81349">
        <ele>170.43</ele>
        <time>2021-08-01T07:18:04.999Z</time>
      </trkpt>
      <trkpt lat="48.85168" lon="1.81334">
        <ele>171.4</ele>
        <time>2021-08-01T07:18:25.999Z</time>
      </trkpt>
      <trkpt lat="48.85188" lon="1.81327">
        <ele>171.04</ele>
        <time>2021-08-01T07:18:46.999Z</time>
      </trkpt>
      <trkpt lat="48.85207" lon="1.81317">
        <ele>171.1</ele>
        <time>2021-08-01T07:19:03.999Z</time>
      </trkpt>
      <trkpt lat="48.85225" lon="1.81314">
        <ele>171.22</ele>
        <time>2021-08-01T07:19:17.999Z</time>
      </trkpt>
      <trkpt lat="48.85239" lon="1.81297">
        <ele>172.68</ele>
        <time>2021-08-01T07:19:34.999Z</time>
      </trkpt>
      <trkpt lat="48.85257" lon="1.81286">
        <ele>174.12</ele>
        <time>2021-08-01T07:19:50.999Z</time>
      </trkpt>
      <trkpt lat="48.85269" lon="1.81265">
        <ele>175.06</ele>
        <time>2021-08-01T07:20:06.999Z</time>
      </trkpt>
      <trkpt lat="48.85287" lon="1.81258">
        <ele>174.78</ele>
        <time>2021-08-01T07:20:29.999Z</time>
      </trkpt>
      <trkpt lat="48.85304" lon="1.81245">
        <ele>174.74</ele>
        <time>2021-08-01T07:20:44.999Z</time>
      </trkpt>
      <trkpt lat="48.85321" lon="1.81235">
        <ele>176.42</ele>
        <time>2021-08-01T07:21:04.999Z</time>
      </trkpt>
      <trkpt lat="48.85338" lon="1.81219">
        <ele>178</ele>
        <time>2021-08-01T07:21:22.999Z</time>
      </trkpt>
      <trkpt lat="48.85354" lon="1.81209">
        <ele>180.16</ele>
        <time>2021-08-01T07:21:41.999Z</time>
      </trkpt>
      <trkpt lat="48.85373" lon="1.81201">
        <ele>182.83</ele>
        <time>2021-08-01T07:22:05.999Z</time>
      </trkpt>
      <trkpt lat="48.85393" lon="1.81198">
        <ele>184.98</ele>
        <time>2021-08-01T07:22:25.999Z</time>
      </trkpt>
      <trkpt lat="48.85409" lon="1.81186">
        <ele>185.34</ele>
        <time>2021-08-01T07:22:37.999Z</time>
      </trkpt>
      <trkpt lat="48.85424" lon="1.81171">
        <ele>185.12</ele>
        <time>2021-08-01T07:22:51.999Z</time>
      </trkpt>
      <trkpt lat="48.85441" lon="1.8116">
        <ele>186.02</ele>
        <time>2021-08-01T07:23:23.999Z</time>
      </trkpt>
      <trkpt lat="48.8546" lon="1.81154">
        <ele>186.78</ele>
        <time>2021-08-01T07:23:43.999Z</time>
      </trkpt>
      <trkpt lat="48.85478" lon="1.81141">
        <ele>188.25</ele>
        <time>2021-08-01T07:23:56.999Z</time>
      </trkpt>
      <trkpt lat="48.85495" lon="1.8113">
        <ele>188.25</ele>
        <time>2021-08-01T07:24:13.999Z</time>
      </trkpt>
      <trkpt lat="48.85513" lon="1.81125">
        <ele>187.96</ele>
        <time>2021-08-01T07:24:29.999Z</time>
      </trkpt>
      <trkpt lat="48.85531" lon="1.81122">
        <ele>188.54</ele>
        <time>2021-08-01T07:24:44.999Z</time>
      </trkpt>
      <trkpt lat="48.8555" lon="1.81116">
        <ele>188.92</ele>
        <time>2021-08-01T07:25:06.999Z</time>
      </trkpt>
      <trkpt lat="48.85568" lon="1.81107">
        <ele>187.42</ele>
        <time>2021-08-01T07:25:25.999Z</time>
      </trkpt>
      <trkpt lat="48.85588" lon="1.81105">
        <ele>188.05</ele>
        <time>2021-08-01T07:25:35.999Z</time>
      </trkpt>
      <trkpt lat="48.85604" lon="1.81092">
        <ele>188.42</ele>
        <time>2021-08-01T07:25:51.999Z</time>
      </trkpt>
      <trkpt lat="48.8562" lon="1.81079">
        <ele>186.55</ele>
        <time>2021-08-01T07:26:12.000Z</time>
      </trkpt>
      <trkpt lat="48.85639" lon="1.81079">
        <ele>185.79</ele>
        <time>2021-08-01T07:26:25.000Z</time>
      </trkpt>
      <trkpt lat="48.85648" lon="1.81054">
        <ele>188.31</ele>
        <time>2021-08-01T07:26:46.000Z</time>
      </trkpt>
      <trkpt lat="48.85654" lon="1.81025">
        <ele>188.83</ele>
        <time>2021-08-01T07:27:00.000Z</time>
      </trkpt>
      <trkpt lat="48.8564" lon="1.81006">
        <ele>189.26</ele>
        <time>2021-08-01T07:27:15.000Z</time>
      </trkpt>
      <trkpt lat="48.85626" lon="1.80989">
        <ele>189.28</ele>
        <time>2021-08-01T07:27:27.000Z</time>
      </trkpt>
      <trkpt lat="48.85612" lon="1.8097">
        <ele>188.59</ele>
        <time>2021-08-01T07:27:46.000Z</time>
      </trkpt>
      <trkpt lat="48.85601" lon="1.80948">
        <ele>188.52</ele>
        <time>2021-08-01T07:28:01.000Z</time>
      </trkpt>
      <trkpt lat="48.85587" lon="1.80928">
        <ele>188.23</ele>
        <time>2021-08-01T07:28:20.000Z</time>
      </trkpt>
      <trkpt lat="48.85573" lon="1.80909">
        <ele>188.37</ele>
        <time>2021-08-01T07:28:33.000Z</time>
      </trkpt>
      <trkpt lat="48.85557" lon="1.80897">
        <ele>187.71</ele>
        <time>2021-08-01T07:28:49.000Z</time>
      </trkpt>
      <trkpt lat="48.85544" lon="1.80875">
        <ele>187.12</ele>
        <time>2021-08-01T07:29:09.000Z</time>
      </trkpt>
      <trkpt lat="48.85528" lon="1.80858">
        <ele>186.42</ele>
        <time>2021-08-01T07:29:23.000Z</time>
      </trkpt>
      <trkpt lat="48.85515" lon="1.80838">
        <ele>187.15</ele>
        <time>2021-08-01T07:29:38.000Z</time>
      </trkpt>
      <trkpt lat="48.85499" lon="1.80825">
        <ele>187.22</ele>
        <time>2021-08-01T07:29:52.000Z</time>
      </trkpt>
      <trkpt lat="48.85482" lon="1.80813">
        <ele>187.14</ele>
        <time>2021-08-01T07:30:04.000Z</time>
      </trkpt>
      <trkpt lat="48.85465" lon="1.80801">
        <ele>186.94</ele>
        <time>2021-08-01T07:30:24.000Z</time>
      </trkpt>
      <trkpt lat="48.85448" lon="1.80781">
        <ele>185.72</ele>
        <time>2021-08-01T07:30:35.000Z</time>
      </trkpt>
      <trkpt lat="48.85429" lon="1.80776">
        <ele>185.82</ele>
        <time>2021-08-01T07:30:50.000Z</time>
      </trkpt>
      <trkpt lat="48.85411" lon="1.80762">
        <ele>186.06</ele>
        <time>2021-08-01T07:31:06.000Z</time>
      </trkpt>
      <trkpt lat="48.85392" lon="1.80757">
        <ele>187.3</ele>
        <time>2021-08-01T07:31:20.000Z</time>
      </trkpt>
      <trkpt lat="48.85374" lon="1.80754">
        <ele>186.7</ele>
        <time>2021-08-01T07:31:39.000Z</time>
      </trkpt>
      <trkpt lat="48.85357" lon="1.80745">
        <ele>185.46</ele>
        <time>2021-08-01T07:31:52.000Z</time>
      </trkpt>
      <trkpt lat="48.85338" lon="1.80745">
        <ele>183.57</ele>
        <time>2021-08-01T07:32:07.000Z</time>
      </trkpt>
      <trkpt lat="48.85322" lon="1.80725">
        <ele>181.77</ele>
        <time>2021-08-01T07:32:24.000Z</time>
      </trkpt>
      <trkpt lat="48.85306" lon="1.80709">
        <ele>179.88</ele>
        <time>2021-08-01T07:32:40.000Z</time>
      </trkpt>
      <trkpt lat="48.8529" lon="1.80694">
        <ele>175.7</ele>
        <time>2021-08-01T07:32:59.000Z</time>
      </trkpt>
      <trkpt lat="48.85275" lon="1.80679">
        <ele>170.86</ele>
        <time>2021-08-01T07:33:15.000Z</time>
      </trkpt>
      <trkpt lat="48.85258" lon="1.80666">
        <ele>168.48</ele>
        <time>2021-08-01T07:33:28.000Z</time>
      </trkpt>
      <trkpt lat="48.8524" lon="1.80655">
        <ele>167.97</ele>
        <time>2021-08-01T07:33:41.000Z</time>
      </trkpt>
      <trkpt lat="48.85222" lon="1.80647">
        <ele>166.6</ele>
        <time>2021-08-01T07:33:59.000Z</time>
      </trkpt>
      <trkpt lat="48.85204" lon="1.80642">
        <ele>164.8</ele>
        <time>2021-08-01T07:34:18.000Z</time>
      </trkpt>
      <trkpt lat="48.85187" lon="1.80633">
        <ele>163.22</ele>
        <time>2021-08-01T07:34:31.000Z</time>
      </trkpt>
      <trkpt lat="48.85169" lon="1.80624">
        <ele>161.55</ele>
        <time>2021-08-01T07:34:49.000Z</time>
      </trkpt>
      <trkpt lat="48.8517" lon="1.80596">
        <ele>160.11</ele>
        <time>2021-08-01T07:35:32.000Z</time>
      </trkpt>
      <trkpt lat="48.85175" lon="1.80569">
        <ele>158.22</ele>
        <time>2021-08-01T07:35:49.000Z</time>
      </trkpt>
      <trkpt lat="48.85193" lon="1.80563">
        <ele>157.44</ele>
        <time>2021-08-01T07:36:09.000Z</time>
      </trkpt>
      <trkpt lat="48.852" lon="1.80534">
        <ele>156.26</ele>
        <time>2021-08-01T07:36:29.000Z</time>
      </trkpt>
      <trkpt lat="48.8521" lon="1.80511">
        <ele>156.33</ele>
        <time>2021-08-01T07:38:22.999Z</time>
      </trkpt>
      <trkpt lat="48.85213" lon="1.80483">
        <ele>155.72</ele>
        <time>2021-08-01T07:38:42.999Z</time>
      </trkpt>
      <trkpt lat="48.85214" lon="1.80455">
        <ele>155.83</ele>
        <time>2021-08-01T07:39:00.999Z</time>
      </trkpt>
      <trkpt lat="48.85212" lon="1.80427">
        <ele>155.12</ele>
        <time>2021-08-01T07:39:18.999Z</time>
      </trkpt>
      <trkpt lat="48.85206" lon="1.80401">
        <ele>153.97</ele>
        <time>2021-08-01T07:39:34.999Z</time>
      </trkpt>
      <trkpt lat="48.85196" lon="1.80377">
        <ele>153.09</ele>
        <time>2021-08-01T07:39:50.999Z</time>
      </trkpt>
      <trkpt lat="48.85191" lon="1.8035">
        <ele>153.32</ele>
        <time>2021-08-01T07:40:06.999Z</time>
      </trkpt>
      <trkpt lat="48.85187" lon="1.80322">
        <ele>153.43</ele>
        <time>2021-08-01T07:40:24.999Z</time>
      </trkpt>
      <trkpt lat="48.85186" lon="1.80295">
        <ele>151.64</ele>
        <time>2021-08-01T07:40:56.999Z</time>
      </trkpt>
      <trkpt lat="48.85201" lon="1.8028">
        <ele>151.1</ele>
        <time>2021-08-01T07:41:14.999Z</time>
      </trkpt>
      <trkpt lat="48.8522" lon="1.80279">
        <ele>150.73</ele>
        <time>2021-08-01T07:41:35.999Z</time>
      </trkpt>
      <trkpt lat="48.85238" lon="1.80273">
        <ele>149.65</ele>
        <time>2021-08-01T07:42:08.999Z</time>
      </trkpt>
      <trkpt lat="48.85256" lon="1.80267">
        <ele>149.08</ele>
        <time>2021-08-01T07:42:26.999Z</time>
      </trkpt>
      <trkpt lat="48.85273" lon="1.80257">
        <ele>149.37</ele>
        <time>2021-08-01T07:42:44.999Z</time>
      </trkpt>
      <trkpt lat="48.85291" lon="1.8025">
        <ele>150.04</ele>
        <time>2021-08-01T07:43:01.999Z</time>
      </trkpt>
      <trkpt lat="48.85308" lon="1.8024">
        <ele>151.19</ele>
        <time>2021-08-01T07:43:15.999Z</time>
      </trkpt>
      <trkpt lat="48.85327" lon="1.80235">
        <ele>151.59</ele>
        <time>2021-08-01T07:43:31.999Z</time>
      </trkpt>
      <trkpt lat="48.85328" lon="1.80208">
        <ele>152.41</ele>
        <time>2021-08-01T07:43:59.999Z</time>
      </trkpt>
      <trkpt lat="48.85318" lon="1.80185">
        <ele>152.37</ele>
        <time>2021-08-01T07:44:18.999Z</time>
      </trkpt>
      <trkpt lat="48.85316" lon="1.80156">
        <ele>152.43</ele>
        <time>2021-08-01T07:44:34.999Z</time>
      </trkpt>
      <trkpt lat="48.8532" lon="1.80128">
        <ele>152.25</ele>
        <time>2021-08-01T07:45:06.999Z</time>
      </trkpt>
      <trkpt lat="48.85316" lon="1.801">
        <ele>151.94</ele>
        <time>2021-08-01T07:45:22.999Z</time>
      </trkpt>
      <trkpt lat="48.85314" lon="1.80071">
        <ele>151.16</ele>
        <time>2021-08-01T07:45:38.999Z</time>
      </trkpt>
      <trkpt lat="48.85306" lon="1.80046">
        <ele>149.94</ele>
        <time>2021-08-01T07:45:52.999Z</time>
      </trkpt>
      <trkpt lat="48.85294" lon="1.80024">
        <ele>147.76</ele>
        <time>2021-08-01T07:46:08.999Z</time>
      </trkpt>
      <trkpt lat="48.8528" lon="1.80006">
        <ele>146.88</ele>
        <time>2021-08-01T07:46:24.999Z</time>
      </trkpt>
      <trkpt lat="48.85266" lon="1.79986">
        <ele>146.62</ele>
        <time>2021-08-01T07:46:42.999Z</time>
      </trkpt>
      <trkpt lat="48.85255" lon="1.79964">
        <ele>146.08</ele>
        <time>2021-08-01T07:46:55.999Z</time>
      </trkpt>
      <trkpt lat="48.85241" lon="1.79945">
        <ele>145.93</ele>
        <time>2021-08-01T07:47:11.999Z</time>
      </trkpt>
      <trkpt lat="48.85229" lon="1.79922">
        <ele>145.89</ele>
        <time>2021-08-01T07:47:30.999Z</time>
      </trkpt>
      <trkpt lat="48.85213" lon="1.79907">
        <ele>145.44</ele>
        <time>2021-08-01T07:47:46.999Z</time>
      </trkpt>
      <trkpt lat="48.85199" lon="1.79887">
        <ele>145.4</ele>
        <time>2021-08-01T07:48:02.999Z</time>
      </trkpt>
      <trkpt lat="48.85186" lon="1.79866">
        <ele>145.36</ele>
        <time>2021-08-01T07:48:15.999Z</time>
      </trkpt>
      <trkpt lat="48.85174" lon="1.79845">
        <ele>145.09</ele>
        <time>2021-08-01T07:48:32.999Z</time>
      </trkpt>
      <trkpt lat="48.85174" lon="1.79818">
        <ele>141.4</ele>
        <time>2021-08-01T07:50:01.000Z</time>
      </trkpt>
      <trkpt lat="48.85187" lon="1.79799">
        <ele>141.43</ele>
        <time>2021-08-01T07:50:17.000Z</time>
      </trkpt>
      <trkpt lat="48.85201" lon="1.79782">
        <ele>141.14</ele>
        <time>2021-08-01T07:50:33.000Z</time>
      </trkpt>
      <trkpt lat="48.85216" lon="1.79764">
        <ele>139.93</ele>
        <time>2021-08-01T07:50:49.000Z</time>
      </trkpt>
      <trkpt lat="48.85229" lon="1.79744">
        <ele>138.75</ele>
        <time>2021-08-01T07:51:04.000Z</time>
      </trkpt>
      <trkpt lat="48.85242" lon="1.79724">
        <ele>137.56</ele>
        <time>2021-08-01T07:51:20.000Z</time>
      </trkpt>
      <trkpt lat="48.85255" lon="1.79703">
        <ele>136.7</ele>
        <time>2021-08-01T07:51:40.000Z</time>
      </trkpt>
      <trkpt lat="48.85268" lon="1.79682">
        <ele>136.81</ele>
        <time>2021-08-01T07:51:55.000Z</time>
      </trkpt>
      <trkpt lat="48.8528" lon="1.79662">
        <ele>136.89</ele>
        <time>2021-08-01T07:52:23.000Z</time>
      </trkpt>
      <trkpt lat="48.85294" lon="1.79642">
        <ele>137.19</ele>
        <time>2021-08-01T07:52:39.000Z</time>
      </trkpt>
      <trkpt lat="48.85307" lon="1.7962">
        <ele>137.54</ele>
        <time>2021-08-01T07:52:55.000Z</time>
      </trkpt>
      <trkpt lat="48.85319" lon="1.79598">
        <ele>138.38</ele>
        <time>2021-08-01T07:53:13.000Z</time>
      </trkpt>
      <trkpt lat="48.8533" lon="1.79576">
        <ele>139.22</ele>
        <time>2021-08-01T07:53:26.000Z</time>
      </trkpt>
      <trkpt lat="48.8534" lon="1.79552">
        <ele>139.09</ele>
        <time>2021-08-01T07:53:43.000Z</time>
      </trkpt>
      <trkpt lat="48.85347" lon="1.79526">
        <ele>138.37</ele>
        <time>2021-08-01T07:54:01.000Z</time>
      </trkpt>
      <trkpt lat="48.85355" lon="1.795">
        <ele>138.81</ele>
        <time>2021-08-01T07:54:17.000Z</time>
      </trkpt>
      <trkpt lat="48.85341" lon="1.79481">
        <ele>142.04</ele>
        <time>2021-08-01T07:54:38.000Z</time>
      </trkpt>
      <trkpt lat="48.85326" lon="1.79465">
        <ele>142.87</ele>
        <time>2021-08-01T07:54:56.000Z</time>
      </trkpt>
      <trkpt lat="48.8531" lon="1.7945">
        <ele>143.8</ele>
        <time>2021-08-01T07:55:15.000Z</time>
      </trkpt>
      <trkpt lat="48.85293" lon="1.79437">
        <ele>143.23</ele>
        <time>2021-08-01T07:55:29.000Z</time>
      </trkpt>
      <trkpt lat="48.85276" lon="1.79422">
        <ele>142.94</ele>
        <time>2021-08-01T07:55:45.000Z</time>
      </trkpt>
      <trkpt lat="48.8526" lon="1.79406">
        <ele>142.83</ele>
        <time>2021-08-01T07:56:03.000Z</time>
      </trkpt>
      <trkpt lat="48.85244" lon="1.79393">
        <ele>142.83</ele>
        <time>2021-08-01T07:56:18.000Z</time>
      </trkpt>
      <trkpt lat="48.85228" lon="1.79379">
        <ele>143.33</ele>
        <time>2021-08-01T07:56:33.000Z</time>
      </trkpt>
      <trkpt lat="48.85213" lon="1.79363">
        <ele>143.58</ele>
        <time>2021-08-01T07:56:48.000Z</time>
      </trkpt>
      <trkpt lat="48.85197" lon="1.7935">
        <ele>144.21</ele>
        <time>2021-08-01T07:57:07.000Z</time>
      </trkpt>
      <trkpt lat="48.8518" lon="1.79343">
        <ele>145.91</ele>
        <time>2021-08-01T07:57:24.000Z</time>
      </trkpt>
      <trkpt lat="48.85162" lon="1.79334">
        <ele>147.13</ele>
        <time>2021-08-01T07:57:43.000Z</time>
      </trkpt>
      <trkpt lat="48.85145" lon="1.7932">
        <ele>145.49</ele>
        <time>2021-08-01T07:58:02.000Z</time>
      </trkpt>
      <trkpt lat="48.85139" lon="1.79292">
        <ele>142.92</ele>
        <time>2021-08-01T07:58:18.000Z</time>
      </trkpt>
      <trkpt lat="48.85143" lon="1.79263">
        <ele>141.03</ele>
        <time>2021-08-01T07:58:36.000Z</time>
      </trkpt>
      <trkpt lat="48.85144" lon="1.79235">
        <ele>141.65</ele>
        <time>2021-08-01T07:58:56.000Z</time>
      </trkpt>
      <trkpt lat="48.85145" lon="1.79206">
        <ele>141.02</ele>
        <time>2021-08-01T07:59:14.000Z</time>
      </trkpt>
      <trkpt lat="48.8515" lon="1.79178">
        <ele>140.46</ele>
        <time>2021-08-01T07:59:32.000Z</time>
      </trkpt>
      <trkpt lat="48.85159" lon="1.79154">
        <ele>141.84</ele>
        <time>2021-08-01T07:59:49.000Z</time>
      </trkpt>
      <trkpt lat="48.85168" lon="1.79129">
        <ele>141.63</ele>
        <time>2021-08-01T08:00:03.000Z</time>
      </trkpt>
      <trkpt lat="48.85176" lon="1.79104">
        <ele>141.38</ele>
        <time>2021-08-01T08:00:23.999Z</time>
      </trkpt>
      <trkpt lat="48.85176" lon="1.79076">
        <ele>140.35</ele>
        <time>2021-08-01T08:00:40.999Z</time>
      </trkpt>
      <trkpt lat="48.85171" lon="1.7905">
        <ele>140.62</ele>
        <time>2021-08-01T08:00:58.999Z</time>
      </trkpt>
      <trkpt lat="48.85163" lon="1.79024">
        <ele>141.47</ele>
        <time>2021-08-01T08:01:14.999Z</time>
      </trkpt>
      <trkpt lat="48.85156" lon="1.78998">
        <ele>139.86</ele>
        <time>2021-08-01T08:01:38.999Z</time>
      </trkpt>
      <trkpt lat="48.85153" lon="1.78971">
        <ele>138.56</ele>
        <time>2021-08-01T08:01:51.999Z</time>
      </trkpt>
      <trkpt lat="48.85148" lon="1.78944">
        <ele>136.8</ele>
        <time>2021-08-01T08:02:25.999Z</time>
      </trkpt>
      <trkpt lat="48.85151" lon="1.78915">
        <ele>135.65</ele>
        <time>2021-08-01T08:03:49.999Z</time>
      </trkpt>
      <trkpt lat="48.8514" lon="1.78893">
        <ele>139.01</ele>
        <time>2021-08-01T08:04:18.999Z</time>
      </trkpt>
      <trkpt lat="48.85137" lon="1.78865">
        <ele>151.41</ele>
        <time>2021-08-01T08:06:30.999Z</time>
      </trkpt>
      <trkpt lat="48.85129" lon="1.7884">
        <ele>154.01</ele>
        <time>2021-08-01T08:06:53.999Z</time>
      </trkpt>
      <trkpt lat="48.85123" lon="1.78814">
        <ele>153.47</ele>
        <time>2021-08-01T08:07:07.999Z</time>
      </trkpt>
      <trkpt lat="48.85118" lon="1.78787">
        <ele>151.04</ele>
        <time>2021-08-01T08:07:25.999Z</time>
      </trkpt>
      <trkpt lat="48.85115" lon="1.78759">
        <ele>147.48</ele>
        <time>2021-08-01T08:07:44.999Z</time>
      </trkpt>
      <trkpt lat="48.85116" lon="1.78731">
        <ele>143.91</ele>
        <time>2021-08-01T08:08:01.999Z</time>
      </trkpt>
      <trkpt lat="48.85118" lon="1.78703">
        <ele>139.78</ele>
        <time>2021-08-01T08:08:19.999Z</time>
      </trkpt>
      <trkpt lat="48.85119" lon="1.78675">
        <ele>137.21</ele>
        <time>2021-08-01T08:08:37.999Z</time>
      </trkpt>
      <trkpt lat="48.8512" lon="1.78646">
        <ele>135.7</ele>
        <time>2021-08-01T08:08:51.999Z</time>
      </trkpt>
      <trkpt lat="48.85118" lon="1.78618">
        <ele>135.19</ele>
        <time>2021-08-01T08:09:11.999Z</time>
      </trkpt>
      <trkpt lat="48.85117" lon="1.7859">
        <ele>134.33</ele>
        <time>2021-08-01T08:09:26.999Z</time>
      </trkpt>
      <trkpt lat="48.85114" lon="1.78562">
        <ele>133.8</ele>
        <time>2021-08-01T08:09:43.999Z</time>
      </trkpt>
      <trkpt lat="48.85117" lon="1.78534">
        <ele>134.32</ele>
        <time>2021-08-01T08:10:00.999Z</time>
      </trkpt>
      <trkpt lat="48.85118" lon="1.78507">
        <ele>135.36</ele>
        <time>2021-08-01T08:10:14.999Z</time>
      </trkpt>
      <trkpt lat="48.85116" lon="1.78536">
        <ele>131.21</ele>
        <time>2021-08-01T08:11:00.999Z</time>
      </trkpt>
      <trkpt lat="48.85117" lon="1.78563">
        <ele>129.24</ele>
        <time>2021-08-01T08:11:13.999Z</time>
      </trkpt>
      <trkpt lat="48.85119" lon="1.78591">
        <ele>128.8</ele>
        <time>2021-08-01T08:11:29.999Z</time>
      </trkpt>
      <trkpt lat="48.85135" lon="1.78606">
        <ele>129.44</ele>
        <time>2021-08-01T08:12:15.000Z</time>
      </trkpt>
      <trkpt lat="48.85152" lon="1.78617">
        <ele>130.42</ele>
        <time>2021-08-01T08:12:30.000Z</time>
      </trkpt>
      <trkpt lat="48.8516" lon="1.78592">
        <ele>133.76</ele>
        <time>2021-08-01T08:13:00.000Z</time>
      </trkpt>
      <trkpt lat="48.85167" lon="1.78567">
        <ele>133.9</ele>
        <time>2021-08-01T08:13:20.000Z</time>
      </trkpt>
      <trkpt lat="48.85179" lon="1.78545">
        <ele>132.51</ele>
        <time>2021-08-01T08:13:34.000Z</time>
      </trkpt>
      <trkpt lat="48.8519" lon="1.78522">
        <ele>132.04</ele>
        <time>2021-08-01T08:13:52.000Z</time>
      </trkpt>
      <trkpt lat="48.85201" lon="1.78499">
        <ele>132.61</ele>
        <time>2021-08-01T08:14:08.000Z</time>
      </trkpt>
      <trkpt lat="48.85208" lon="1.78474">
        <ele>134.12</ele>
        <time>2021-08-01T08:14:23.000Z</time>
      </trkpt>
      <trkpt lat="48.85219" lon="1.78451">
        <ele>135.34</ele>
        <time>2021-08-01T08:14:43.000Z</time>
      </trkpt>
      <trkpt lat="48.85227" lon="1.78425">
        <ele>135.4</ele>
        <time>2021-08-01T08:15:00.000Z</time>
      </trkpt>
      <trkpt lat="48.85231" lon="1.78396">
        <ele>135.4</ele>
        <time>2021-08-01T08:15:26.000Z</time>
      </trkpt>
      <trkpt lat="48.85236" lon="1.7837">
        <ele>133.62</ele>
        <time>2021-08-01T08:15:45.000Z</time>
      </trkpt>
      <trkpt lat="48.85243" lon="1.78342">
        <ele>131.22</ele>
        <time>2021-08-01T08:16:04.000Z</time>
      </trkpt>
      <trkpt lat="48.85252" lon="1.78316">
        <ele>126.02</ele>
        <time>2021-08-01T08:16:20.000Z</time>
      </trkpt>
      <trkpt lat="48.85268" lon="1.78302">
        <ele>122.16</ele>
        <time>2021-08-01T08:16:36.000Z</time>
      </trkpt>
      <trkpt lat="48.85284" lon="1.78316">
        <ele>122.55</ele>
        <time>2021-08-01T08:16:54.000Z</time>
      </trkpt>
      <trkpt lat="48.85301" lon="1.7833">
        <ele>125.2</ele>
        <time>2021-08-01T08:17:09.000Z</time>
      </trkpt>
      <trkpt lat="48.85318" lon="1.78342">
        <ele>129.28</ele>
        <time>2021-08-01T08:17:29.000Z</time>
      </trkpt>
      <trkpt lat="48.85335" lon="1.78354">
        <ele>132.32</ele>
        <time>2021-08-01T08:17:48.000Z</time>
      </trkpt>
      <trkpt lat="48.85354" lon="1.78352">
        <ele>136.6</ele>
        <time>2021-08-01T08:18:07.000Z</time>
      </trkpt>
      <trkpt lat="48.85371" lon="1.78338">
        <ele>138.63</ele>
        <time>2021-08-01T08:18:25.000Z</time>
      </trkpt>
      <trkpt lat="48.85386" lon="1.78322">
        <ele>139.46</ele>
        <time>2021-08-01T08:18:44.000Z</time>
      </trkpt>
      <trkpt lat="48.85401" lon="1.78307">
        <ele>139.14</ele>
        <time>2021-08-01T08:19:00.000Z</time>
      </trkpt>
      <trkpt lat="48.85412" lon="1.78285">
        <ele>138.54</ele>
        <time>2021-08-01T08:19:17.000Z</time>
      </trkpt>
      <trkpt lat="48.85426" lon="1.78267">
        <ele>137.43</ele>
        <time>2021-08-01T08:19:33.000Z</time>
      </trkpt>
      <trkpt lat="48.85444" lon="1.78271">
        <ele>137.06</ele>
        <time>2021-08-01T08:19:51.000Z</time>
      </trkpt>
      <trkpt lat="48.85462" lon="1.78276">
        <ele>137.44</ele>
        <time>2021-08-01T08:20:09.000Z</time>
      </trkpt>
      <trkpt lat="48.8548" lon="1.78279">
        <ele>139.1</ele>
        <time>2021-08-01T08:20:28.000Z</time>
      </trkpt>
      <trkpt lat="48.85498" lon="1.78284">
        <ele>139.08</ele>
        <time>2021-08-01T08:20:43.000Z</time>
      </trkpt>
      <trkpt lat="48.85516" lon="1.7829">
        <ele>138.81</ele>
        <time>2021-08-01T08:21:00.000Z</time>
      </trkpt>
      <trkpt lat="48.85534" lon="1.78298">
        <ele>139.27</ele>
        <time>2021-08-01T08:21:17.000Z</time>
      </trkpt>
      <trkpt lat="48.85552" lon="1.78301">
        <ele>139.9</ele>
        <time>2021-08-01T08:21:34.000Z</time>
      </trkpt>
      <trkpt lat="48.8557" lon="1.78307">
        <ele>141.19</ele>
        <time>2021-08-01T08:21:50.000Z</time>
      </trkpt>
      <trkpt lat="48.85588" lon="1.78314">
        <ele>139.66</ele>
        <time>2021-08-01T08:22:15.000Z</time>
      </trkpt>
      <trkpt lat="48.85603" lon="1.78332">
        <ele>139.21</ele>
        <time>2021-08-01T08:22:52.000Z</time>
      </trkpt>
      <trkpt lat="48.8562" lon="1.78322">
        <ele>139.95</ele>
        <time>2021-08-01T08:23:13.999Z</time>
      </trkpt>
      <trkpt lat="48.85638" lon="1.78315">
        <ele>141.45</ele>
        <time>2021-08-01T08:23:31.999Z</time>
      </trkpt>
      <trkpt lat="48.85657" lon="1.78314">
        <ele>144.54</ele>
        <time>2021-08-01T08:23:50.999Z</time>
      </trkpt>
      <trkpt lat="48.85674" lon="1.78304">
        <ele>147.33</ele>
        <time>2021-08-01T08:24:06.999Z</time>
      </trkpt>
      <trkpt lat="48.85693" lon="1.78297">
        <ele>148.21</ele>
        <time>2021-08-01T08:24:32.999Z</time>
      </trkpt>
      <trkpt lat="48.85711" lon="1.78289">
        <ele>148.9</ele>
        <time>2021-08-01T08:24:51.999Z</time>
      </trkpt>
      <trkpt lat="48.85729" lon="1.78284">
        <ele>149.3</ele>
        <time>2021-08-01T08:25:11.999Z</time>
      </trkpt>
      <trkpt lat="48.85742" lon="1.78265">
        <ele>149.13</ele>
        <time>2021-08-01T08:25:26.999Z</time>
      </trkpt>
      <trkpt lat="48.85756" lon="1.78247">
        <ele>148.98</ele>
        <time>2021-08-01T08:25:39.999Z</time>
      </trkpt>
      <trkpt lat="48.85769" lon="1.78223">
        <ele>150.5</ele>
        <time>2021-08-01T08:25:57.999Z</time>
      </trkpt>
      <trkpt lat="48.85779" lon="1.782">
        <ele>151.62</ele>
        <time>2021-08-01T08:26:16.999Z</time>
      </trkpt>
      <trkpt lat="48.85794" lon="1.78181">
        <ele>151.88</ele>
        <time>2021-08-01T08:26:32.999Z</time>
      </trkpt>
      <trkpt lat="48.85805" lon="1.78157">
        <ele>152.9</ele>
        <time>2021-08-01T08:26:52.999Z</time>
      </trkpt>
      <trkpt lat="48.85819" lon="1.78136">
        <ele>153.17</ele>
        <time>2021-08-01T08:27:11.999Z</time>
      </trkpt>
      <trkpt lat="48.85832" lon="1.78117">
        <ele>152.83</ele>
        <time>2021-08-01T08:27:25.999Z</time>
      </trkpt>
      <trkpt lat="48.85847" lon="1.78097">
        <ele>150.71</ele>
        <time>2021-08-01T08:27:45.999Z</time>
      </trkpt>
      <trkpt lat="48.85858" lon="1.78075">
        <ele>146.96</ele>
        <time>2021-08-01T08:28:07.999Z</time>
      </trkpt>
      <trkpt lat="48.85873" lon="1.78058">
        <ele>146.86</ele>
        <time>2021-08-01T08:28:27.999Z</time>
      </trkpt>
      <trkpt lat="48.85888" lon="1.78039">
        <ele>146.08</ele>
        <time>2021-08-01T08:28:37.999Z</time>
      </trkpt>
      <trkpt lat="48.85897" lon="1.78016">
        <ele>141.88</ele>
        <time>2021-08-01T08:29:03.999Z</time>
      </trkpt>
      <trkpt lat="48.85912" lon="1.77998">
        <ele>140.98</ele>
        <time>2021-08-01T08:29:25.999Z</time>
      </trkpt>
      <trkpt lat="48.85926" lon="1.77981">
        <ele>140.33</ele>
        <time>2021-08-01T08:29:34.999Z</time>
      </trkpt>
      <trkpt lat="48.85944" lon="1.7798">
        <ele>139.26</ele>
        <time>2021-08-01T08:29:54.999Z</time>
      </trkpt>
      <trkpt lat="48.8596" lon="1.77969">
        <ele>140.76</ele>
        <time>2021-08-01T08:30:14.999Z</time>
      </trkpt>
      <trkpt lat="48.85978" lon="1.77959">
        <ele>142.25</ele>
        <time>2021-08-01T08:30:50.999Z</time>
      </trkpt>
      <trkpt lat="48.85996" lon="1.77953">
        <ele>144.41</ele>
        <time>2021-08-01T08:31:05.999Z</time>
      </trkpt>
      <trkpt lat="48.86014" lon="1.77945">
        <ele>145.74</ele>
        <time>2021-08-01T08:31:28.999Z</time>
      </trkpt>
      <trkpt lat="48.86033" lon="1.77949">
        <ele>147.14</ele>
        <time>2021-08-01T08:32:18.999Z</time>
      </trkpt>
      <trkpt lat="48.86051" lon="1.77965">
        <ele>149.41</ele>
        <time>2021-08-01T08:32:39.999Z</time>
      </trkpt>
      <trkpt lat="48.86065" lon="1.77983">
        <ele>151.15</ele>
        <time>2021-08-01T08:32:57.999Z</time>
      </trkpt>
      <trkpt lat="48.86081" lon="1.77999">
        <ele>152.18</ele>
        <time>2021-08-01T08:33:18.999Z</time>
      </trkpt>
      <trkpt lat="48.86092" lon="1.78022">
        <ele>147.07</ele>
        <time>2021-08-01T08:36:46.000Z</time>
      </trkpt>
      <trkpt lat="48.86106" lon="1.78043">
        <ele>148.4</ele>
        <time>2021-08-01T08:37:00.000Z</time>
      </trkpt>
      <trkpt lat="48.86119" lon="1.78064">
        <ele>153.47</ele>
        <time>2021-08-01T08:37:21.000Z</time>
      </trkpt>
      <trkpt lat="48.8613" lon="1.78087">
        <ele>155.66</ele>
        <time>2021-08-01T08:37:39.000Z</time>
      </trkpt>
      <trkpt lat="48.86141" lon="1.78111">
        <ele>157.45</ele>
        <time>2021-08-01T08:37:57.000Z</time>
      </trkpt>
      <trkpt lat="48.86152" lon="1.78133">
        <ele>158.84</ele>
        <time>2021-08-01T08:38:13.000Z</time>
      </trkpt>
      <trkpt lat="48.86164" lon="1.78153">
        <ele>161.38</ele>
        <time>2021-08-01T08:38:29.000Z</time>
      </trkpt>
      <trkpt lat="48.86175" lon="1.78176">
        <ele>163.45</ele>
        <time>2021-08-01T08:38:48.000Z</time>
      </trkpt>
      <trkpt lat="48.86186" lon="1.78198">
        <ele>164.81</ele>
        <time>2021-08-01T08:39:07.000Z</time>
      </trkpt>
      <trkpt lat="48.862" lon="1.78217">
        <ele>165.64</ele>
        <time>2021-08-01T08:39:24.000Z</time>
      </trkpt>
      <trkpt lat="48.86209" lon="1.78241">
        <ele>166.81</ele>
        <time>2021-08-01T08:39:41.000Z</time>
      </trkpt>
      <trkpt lat="48.86221" lon="1.78263">
        <ele>167.46</ele>
        <time>2021-08-01T08:39:59.000Z</time>
      </trkpt>
      <trkpt lat="48.86232" lon="1.78287">
        <ele>170.18</ele>
        <time>2021-08-01T08:40:17.000Z</time>
      </trkpt>
      <trkpt lat="48.86245" lon="1.78306">
        <ele>170.3</ele>
        <time>2021-08-01T08:40:39.000Z</time>
      </trkpt>
      <trkpt lat="48.86264" lon="1.7831">
        <ele>170.7</ele>
        <time>2021-08-01T08:40:58.000Z</time>
      </trkpt>
      <trkpt lat="48.86283" lon="1.78316">
        <ele>170.91</ele>
        <time>2021-08-01T08:41:14.000Z</time>
      </trkpt>
      <trkpt lat="48.86301" lon="1.78323">
        <ele>170.68</ele>
        <time>2021-08-01T08:41:34.000Z</time>
      </trkpt>
      <trkpt lat="48.8632" lon="1.78326">
        <ele>167.98</ele>
        <time>2021-08-01T08:41:57.000Z</time>
      </trkpt>
      <trkpt lat="48.86338" lon="1.78331">
        <ele>165.86</ele>
        <time>2021-08-01T08:42:12.000Z</time>
      </trkpt>
      <trkpt lat="48.86356" lon="1.78336">
        <ele>166.62</ele>
        <time>2021-08-01T08:42:30.000Z</time>
      </trkpt>
      <trkpt lat="48.86375" lon="1.78341">
        <ele>169.54</ele>
        <time>2021-08-01T08:42:49.000Z</time>
      </trkpt>
      <trkpt lat="48.86393" lon="1.78344">
        <ele>172.34</ele>
        <time>2021-08-01T08:43:08.000Z</time>
      </trkpt>
      <trkpt lat="48.86412" lon="1.78351">
        <ele>173.07</ele>
        <time>2021-08-01T08:43:24.000Z</time>
      </trkpt>
      <trkpt lat="48.8643" lon="1.7836">
        <ele>175.58</ele>
        <time>2021-08-01T08:43:43.000Z</time>
      </trkpt>
      <trkpt lat="48.86448" lon="1.78366">
        <ele>178.17</ele>
        <time>2021-08-01T08:44:01.000Z</time>
      </trkpt>
      <trkpt lat="48.86466" lon="1.78373">
        <ele>179.08</ele>
        <time>2021-08-01T08:44:20.000Z</time>
      </trkpt>
      <trkpt lat="48.86484" lon="1.78378">
        <ele>180.3</ele>
        <time>2021-08-01T08:44:39.000Z</time>
      </trkpt>
      <trkpt lat="48.86501" lon="1.78387">
        <ele>181.05</ele>
        <time>2021-08-01T08:44:54.000Z</time>
      </trkpt>
      <trkpt lat="48.86519" lon="1.78393">
        <ele>180.44</ele>
        <time>2021-08-01T08:46:25.999Z</time>
      </trkpt>
      <trkpt lat="48.86532" lon="1.78413">
        <ele>178.85</ele>
        <time>2021-08-01T08:47:02.999Z</time>
      </trkpt>
      <trkpt lat="48.86541" lon="1.78437">
        <ele>178.27</ele>
        <time>2021-08-01T08:47:33.999Z</time>
      </trkpt>
      <trkpt lat="48.86551" lon="1.78461">
        <ele>178.46</ele>
        <time>2021-08-01T08:47:56.999Z</time>
      </trkpt>
      <trkpt lat="48.86558" lon="1.78486">
        <ele>179.74</ele>
        <time>2021-08-01T08:48:15.999Z</time>
      </trkpt>
      <trkpt lat="48.86576" lon="1.78477">
        <ele>182</ele>
        <time>2021-08-01T08:49:13.999Z</time>
      </trkpt>
      <trkpt lat="48.86584" lon="1.78452">
        <ele>180.05</ele>
        <time>2021-08-01T08:49:31.999Z</time>
      </trkpt>
      <trkpt lat="48.86591" lon="1.78425">
        <ele>175.7</ele>
        <time>2021-08-01T08:51:16.999Z</time>
      </trkpt>
      <trkpt lat="48.86599" lon="1.784">
        <ele>175.69</ele>
        <time>2021-08-01T08:51:38.999Z</time>
      </trkpt>
      <trkpt lat="48.86607" lon="1.78373">
        <ele>174.77</ele>
        <time>2021-08-01T08:51:54.999Z</time>
      </trkpt>
      <trkpt lat="48.86616" lon="1.78348">
        <ele>173.18</ele>
        <time>2021-08-01T08:52:09.999Z</time>
      </trkpt>
      <trkpt lat="48.86623" lon="1.78323">
        <ele>174.61</ele>
        <time>2021-08-01T08:52:22.999Z</time>
      </trkpt>
      <trkpt lat="48.86632" lon="1.78298">
        <ele>177.29</ele>
        <time>2021-08-01T08:52:44.999Z</time>
      </trkpt>
      <trkpt lat="48.86638" lon="1.78271">
        <ele>177.75</ele>
        <time>2021-08-01T08:52:57.999Z</time>
      </trkpt>
      <trkpt lat="48.86646" lon="1.78245">
        <ele>177.84</ele>
        <time>2021-08-01T08:53:16.999Z</time>
      </trkpt>
      <trkpt lat="48.8665" lon="1.78217">
        <ele>177.91</ele>
        <time>2021-08-01T08:53:32.999Z</time>
      </trkpt>
      <trkpt lat="48.86658" lon="1.78191">
        <ele>177.08</ele>
        <time>2021-08-01T08:53:49.999Z</time>
      </trkpt>
      <trkpt lat="48.86666" lon="1.78166">
        <ele>176.56</ele>
        <time>2021-08-01T08:54:04.999Z</time>
      </trkpt>
      <trkpt lat="48.86673" lon="1.7814">
        <ele>176.58</ele>
        <time>2021-08-01T08:54:21.999Z</time>
      </trkpt>
      <trkpt lat="48.86674" lon="1.78111">
        <ele>176.13</ele>
        <time>2021-08-01T08:54:38.999Z</time>
      </trkpt>
      <trkpt lat="48.86671" lon="1.78084">
        <ele>175.77</ele>
        <time>2021-08-01T08:54:55.999Z</time>
      </trkpt>
      <trkpt lat="48.86669" lon="1.78055">
        <ele>175.38</ele>
        <time>2021-08-01T08:55:13.999Z</time>
      </trkpt>
      <trkpt lat="48.86667" lon="1.78027">
        <ele>174.05</ele>
        <time>2021-08-01T08:55:27.999Z</time>
      </trkpt>
      <trkpt lat="48.86665" lon="1.78">
        <ele>171.93</ele>
        <time>2021-08-01T08:55:48.999Z</time>
      </trkpt>
      <trkpt lat="48.86664" lon="1.77972">
        <ele>169.94</ele>
        <time>2021-08-01T08:56:06.999Z</time>
      </trkpt>
      <trkpt lat="48.86661" lon="1.77945">
        <ele>167.95</ele>
        <time>2021-08-01T08:56:22.999Z</time>
      </trkpt>
      <trkpt lat="48.86662" lon="1.77917">
        <ele>165.79</ele>
        <time>2021-08-01T08:56:38.999Z</time>
      </trkpt>
      <trkpt lat="48.8666" lon="1.77888">
        <ele>163.38</ele>
        <time>2021-08-01T08:56:57.999Z</time>
      </trkpt>
      <trkpt lat="48.86663" lon="1.77861">
        <ele>162.19</ele>
        <time>2021-08-01T08:57:17.000Z</time>
      </trkpt>
      <trkpt lat="48.86661" lon="1.77833">
        <ele>161.43</ele>
        <time>2021-08-01T08:57:32.000Z</time>
      </trkpt>
      <trkpt lat="48.86654" lon="1.77807">
        <ele>160.72</ele>
        <time>2021-08-01T08:58:31.000Z</time>
      </trkpt>
      <trkpt lat="48.86636" lon="1.77799">
        <ele>160.68</ele>
        <time>2021-08-01T08:58:50.000Z</time>
      </trkpt>
      <trkpt lat="48.86619" lon="1.7779">
        <ele>160.12</ele>
        <time>2021-08-01T08:59:09.000Z</time>
      </trkpt>
      <trkpt lat="48.86601" lon="1.77784">
        <ele>159.07</ele>
        <time>2021-08-01T08:59:30.000Z</time>
      </trkpt>
      <trkpt lat="48.86582" lon="1.77788">
        <ele>157.7</ele>
        <time>2021-08-01T08:59:48.000Z</time>
      </trkpt>
      <trkpt lat="48.86564" lon="1.77791">
        <ele>156.2</ele>
        <time>2021-08-01T09:00:12.000Z</time>
      </trkpt>
      <trkpt lat="48.86546" lon="1.77793">
        <ele>155.78</ele>
        <time>2021-08-01T09:00:34.000Z</time>
      </trkpt>
      <trkpt lat="48.86528" lon="1.778">
        <ele>154.81</ele>
        <time>2021-08-01T09:01:19.000Z</time>
      </trkpt>
      <trkpt lat="48.8651" lon="1.77808">
        <ele>154.03</ele>
        <time>2021-08-01T09:01:41.000Z</time>
      </trkpt>
      <trkpt lat="48.86508" lon="1.7778">
        <ele>152.88</ele>
        <time>2021-08-01T09:02:14.000Z</time>
      </trkpt>
      <trkpt lat="48.86518" lon="1.77755">
        <ele>153.45</ele>
        <time>2021-08-01T09:02:36.000Z</time>
      </trkpt>
      <trkpt lat="48.86528" lon="1.77732">
        <ele>153.27</ele>
        <time>2021-08-01T09:02:54.000Z</time>
      </trkpt>
      <trkpt lat="48.8654" lon="1.7771">
        <ele>153.22</ele>
        <time>2021-08-01T09:03:11.000Z</time>
      </trkpt>
      <trkpt lat="48.86551" lon="1.77688">
        <ele>153.34</ele>
        <time>2021-08-01T09:03:29.000Z</time>
      </trkpt>
      <trkpt lat="48.8656" lon="1.77664">
        <ele>153.32</ele>
        <time>2021-08-01T09:03:49.000Z</time>
      </trkpt>
      <trkpt lat="48.86572" lon="1.77643">
        <ele>152.52</ele>
        <time>2021-08-01T09:04:09.000Z</time>
      </trkpt>
      <trkpt lat="48.86583" lon="1.77622">
        <ele>150.98</ele>
        <time>2021-08-01T09:04:27.000Z</time>
      </trkpt>
      <trkpt lat="48.86597" lon="1.77603">
        <ele>150.76</ele>
        <time>2021-08-01T09:04:42.000Z</time>
      </trkpt>
      <trkpt lat="48.86607" lon="1.7758">
        <ele>151.28</ele>
        <time>2021-08-01T09:05:01.000Z</time>
      </trkpt>
      <trkpt lat="48.86615" lon="1.77555">
        <ele>151.8</ele>
        <time>2021-08-01T09:05:20.000Z</time>
      </trkpt>
      <trkpt lat="48.86627" lon="1.77532">
        <ele>150.65</ele>
        <time>2021-08-01T09:05:43.000Z</time>
      </trkpt>
      <trkpt lat="48.86638" lon="1.7751">
        <ele>149.91</ele>
        <time>2021-08-01T09:06:02.000Z</time>
      </trkpt>
      <trkpt lat="48.86638" lon="1.77482">
        <ele>149</ele>
        <time>2021-08-01T09:06:22.000Z</time>
      </trkpt>
      <trkpt lat="48.86628" lon="1.77457">
        <ele>148.37</ele>
        <time>2021-08-01T09:06:45.000Z</time>
      </trkpt>
      <trkpt lat="48.86612" lon="1.77446">
        <ele>148.82</ele>
        <time>2021-08-01T09:07:02.000Z</time>
      </trkpt>
      <trkpt lat="48.86594" lon="1.77436">
        <ele>147.82</ele>
        <time>2021-08-01T09:07:20.000Z</time>
      </trkpt>
      <trkpt lat="48.86576" lon="1.77426">
        <ele>146.31</ele>
        <time>2021-08-01T09:07:39.000Z</time>
      </trkpt>
      <trkpt lat="48.86559" lon="1.77417">
        <ele>144.95</ele>
        <time>2021-08-01T09:07:56.000Z</time>
      </trkpt>
      <trkpt lat="48.86541" lon="1.77408">
        <ele>143.03</ele>
        <time>2021-08-01T09:08:14.000Z</time>
      </trkpt>
      <trkpt lat="48.86524" lon="1.77398">
        <ele>142.36</ele>
        <time>2021-08-01T09:08:28.999Z</time>
      </trkpt>
      <trkpt lat="48.86507" lon="1.77387">
        <ele>142.37</ele>
        <time>2021-08-01T09:08:48.999Z</time>
      </trkpt>
      <trkpt lat="48.86489" lon="1.77379">
        <ele>143.09</ele>
        <time>2021-08-01T09:09:06.999Z</time>
      </trkpt>
      <trkpt lat="48.86471" lon="1.7737">
        <ele>144.17</ele>
        <time>2021-08-01T09:09:26.999Z</time>
      </trkpt>
      <trkpt lat="48.86453" lon="1.77362">
        <ele>143.32</ele>
        <time>2021-08-01T09:09:43.999Z</time>
      </trkpt>
      <trkpt lat="48.86436" lon="1.77357">
        <ele>132.77</ele>
        <time>2021-08-01T09:14:35.999Z</time>
      </trkpt>
      <trkpt lat="48.86419" lon="1.77347">
        <ele>133.77</ele>
        <time>2021-08-01T09:14:58.999Z</time>
      </trkpt>
      <trkpt lat="48.86402" lon="1.77337">
        <ele>134.64</ele>
        <time>2021-08-01T09:15:22.999Z</time>
      </trkpt>
      <trkpt lat="48.86385" lon="1.77324">
        <ele>135.67</ele>
        <time>2021-08-01T09:15:40.999Z</time>
      </trkpt>
      <trkpt lat="48.86367" lon="1.77314">
        <ele>136.87</ele>
        <time>2021-08-01T09:15:59.999Z</time>
      </trkpt>
      <trkpt lat="48.86353" lon="1.77298">
        <ele>137.77</ele>
        <time>2021-08-01T09:16:12.999Z</time>
      </trkpt>
      <trkpt lat="48.86336" lon="1.77285">
        <ele>138.73</ele>
        <time>2021-08-01T09:16:31.999Z</time>
      </trkpt>
      <trkpt lat="48.86321" lon="1.7727">
        <ele>138.76</ele>
        <time>2021-08-01T09:16:47.999Z</time>
      </trkpt>
      <trkpt lat="48.86307" lon="1.77249">
        <ele>138.92</ele>
        <time>2021-08-01T09:17:02.999Z</time>
      </trkpt>
      <trkpt lat="48.86293" lon="1.77232">
        <ele>138.16</ele>
        <time>2021-08-01T09:17:21.999Z</time>
      </trkpt>
      <trkpt lat="48.86277" lon="1.77218">
        <ele>137.71</ele>
        <time>2021-08-01T09:17:37.999Z</time>
      </trkpt>
      <trkpt lat="48.86263" lon="1.772">
        <ele>137.77</ele>
        <time>2021-08-01T09:17:51.999Z</time>
      </trkpt>
      <trkpt lat="48.86248" lon="1.77183">
        <ele>138.34</ele>
        <time>2021-08-01T09:18:08.999Z</time>
      </trkpt>
      <trkpt lat="48.86233" lon="1.77168">
        <ele>138.45</ele>
        <time>2021-08-01T09:18:24.999Z</time>
      </trkpt>
      <trkpt lat="48.86217" lon="1.77152">
        <ele>137.81</ele>
        <time>2021-08-01T09:18:42.999Z</time>
      </trkpt>
      <trkpt lat="48.86203" lon="1.77134">
        <ele>137.37</ele>
        <time>2021-08-01T09:18:56.999Z</time>
      </trkpt>
      <trkpt lat="48.86199" lon="1.77107">
        <ele>137.22</ele>
        <time>2021-08-01T09:19:24.999Z</time>
      </trkpt>
      <trkpt lat="48.86213" lon="1.77087">
        <ele>137.21</ele>
        <time>2021-08-01T09:19:44.000Z</time>
      </trkpt>
      <trkpt lat="48.86224" lon="1.77065">
        <ele>136.72</ele>
        <time>2021-08-01T09:20:02.000Z</time>
      </trkpt>
      <trkpt lat="48.86237" lon="1.77045">
        <ele>136.53</ele>
        <time>2021-08-01T09:20:22.000Z</time>
      </trkpt>
      <trkpt lat="48.8625" lon="1.77024">
        <ele>136.14</ele>
        <time>2021-08-01T09:20:38.000Z</time>
      </trkpt>
      <trkpt lat="48.86264" lon="1.77005">
        <ele>136.19</ele>
        <time>2021-08-01T09:20:55.000Z</time>
      </trkpt>
      <trkpt lat="48.86276" lon="1.76983">
        <ele>135.99</ele>
        <time>2021-08-01T09:21:12.000Z</time>
      </trkpt>
      <trkpt lat="48.86288" lon="1.76961">
        <ele>135.41</ele>
        <time>2021-08-01T09:21:30.000Z</time>
      </trkpt>
      <trkpt lat="48.86301" lon="1.7694">
        <ele>135.11</ele>
        <time>2021-08-01T09:21:47.000Z</time>
      </trkpt>
      <trkpt lat="48.86315" lon="1.7692">
        <ele>135.06</ele>
        <time>2021-08-01T09:22:03.000Z</time>
      </trkpt>
      <trkpt lat="48.86327" lon="1.76898">
        <ele>134.97</ele>
        <time>2021-08-01T09:22:21.000Z</time>
      </trkpt>
      <trkpt lat="48.86339" lon="1.76877">
        <ele>134.04</ele>
        <time>2021-08-01T09:22:40.000Z</time>
      </trkpt>
      <trkpt lat="48.86354" lon="1.76861">
        <ele>133.7</ele>
        <time>2021-08-01T09:22:54.000Z</time>
      </trkpt>
      <trkpt lat="48.86367" lon="1.76841">
        <ele>133.35</ele>
        <time>2021-08-01T09:23:10.000Z</time>
      </trkpt>
      <trkpt lat="48.86383" lon="1.76825">
        <ele>133.21</ele>
        <time>2021-08-01T09:23:25.000Z</time>
      </trkpt>
      <trkpt lat="48.86398" lon="1.76809">
        <ele>134.37</ele>
        <time>2021-08-01T09:23:42.000Z</time>
      </trkpt>
      <trkpt lat="48.86413" lon="1.7679">
        <ele>135.91</ele>
        <time>2021-08-01T09:23:59.000Z</time>
      </trkpt>
      <trkpt lat="48.86425" lon="1.76767">
        <ele>137.69</ele>
        <time>2021-08-01T09:24:16.000Z</time>
      </trkpt>
      <trkpt lat="48.86439" lon="1.76749">
        <ele>138.74</ele>
        <time>2021-08-01T09:24:36.000Z</time>
      </trkpt>
      <trkpt lat="48.86449" lon="1.76725">
        <ele>139.89</ele>
        <time>2021-08-01T09:25:04.000Z</time>
      </trkpt>
      <trkpt lat="48.8646" lon="1.76703">
        <ele>139.96</ele>
        <time>2021-08-01T09:25:27.000Z</time>
      </trkpt>
      <trkpt lat="48.86475" lon="1.76684">
        <ele>140.63</ele>
        <time>2021-08-01T09:25:45.000Z</time>
      </trkpt>
      <trkpt lat="48.86489" lon="1.76662">
        <ele>142.53</ele>
        <time>2021-08-01T09:26:02.000Z</time>
      </trkpt>
      <trkpt lat="48.86501" lon="1.7664">
        <ele>143.64</ele>
        <time>2021-08-01T09:26:19.000Z</time>
      </trkpt>
      <trkpt lat="48.86509" lon="1.76613">
        <ele>144.27</ele>
        <time>2021-08-01T09:26:40.000Z</time>
      </trkpt>
      <trkpt lat="48.86521" lon="1.76591">
        <ele>144.05</ele>
        <time>2021-08-01T09:26:56.000Z</time>
      </trkpt>
      <trkpt lat="48.86534" lon="1.7657">
        <ele>144.39</ele>
        <time>2021-08-01T09:27:15.000Z</time>
      </trkpt>
      <trkpt lat="48.86543" lon="1.76545">
        <ele>144.4</ele>
        <time>2021-08-01T09:27:34.000Z</time>
      </trkpt>
      <trkpt lat="48.86554" lon="1.76521">
        <ele>145.01</ele>
        <time>2021-08-01T09:27:51.000Z</time>
      </trkpt>
      <trkpt lat="48.86564" lon="1.76499">
        <ele>145.73</ele>
        <time>2021-08-01T09:28:07.000Z</time>
      </trkpt>
      <trkpt lat="48.8656" lon="1.76472">
        <ele>146.95</ele>
        <time>2021-08-01T09:28:38.000Z</time>
      </trkpt>
      <trkpt lat="48.86544" lon="1.76456">
        <ele>147.29</ele>
        <time>2021-08-01T09:28:57.000Z</time>
      </trkpt>
      <trkpt lat="48.86528" lon="1.76442">
        <ele>147.5</ele>
        <time>2021-08-01T09:29:14.000Z</time>
      </trkpt>
      <trkpt lat="48.86512" lon="1.76429">
        <ele>147.77</ele>
        <time>2021-08-01T09:29:30.000Z</time>
      </trkpt>
      <trkpt lat="48.86495" lon="1.76416">
        <ele>147.96</ele>
        <time>2021-08-01T09:29:46.000Z</time>
      </trkpt>
      <trkpt lat="48.86479" lon="1.76403">
        <ele>148.31</ele>
        <time>2021-08-01T09:30:04.000Z</time>
      </trkpt>
      <trkpt lat="48.86462" lon="1.76391">
        <ele>148.34</ele>
        <time>2021-08-01T09:30:22.000Z</time>
      </trkpt>
      <trkpt lat="48.86446" lon="1.76378">
        <ele>148.08</ele>
        <time>2021-08-01T09:30:38.000Z</time>
      </trkpt>
      <trkpt lat="48.8643" lon="1.76364">
        <ele>148.19</ele>
        <time>2021-08-01T09:30:53.999Z</time>
      </trkpt>
      <trkpt lat="48.86414" lon="1.76351">
        <ele>148.14</ele>
        <time>2021-08-01T09:31:12.999Z</time>
      </trkpt>
      <trkpt lat="48.86396" lon="1.7634">
        <ele>147.76</ele>
        <time>2021-08-01T09:32:23.999Z</time>
      </trkpt>
      <trkpt lat="48.86379" lon="1.76329">
        <ele>145.53</ele>
        <time>2021-08-01T09:32:45.999Z</time>
      </trkpt>
      <trkpt lat="48.86362" lon="1.76317">
        <ele>141.99</ele>
        <time>2021-08-01T09:33:03.999Z</time>
      </trkpt>
      <trkpt lat="48.86345" lon="1.76304">
        <ele>138.85</ele>
        <time>2021-08-01T09:33:24.999Z</time>
      </trkpt>
      <trkpt lat="48.86328" lon="1.76289">
        <ele>138.3</ele>
        <time>2021-08-01T09:33:40.999Z</time>
      </trkpt>
      <trkpt lat="48.86311" lon="1.76273">
        <ele>138.42</ele>
        <time>2021-08-01T09:33:57.999Z</time>
      </trkpt>
      <trkpt lat="48.86292" lon="1.76262">
        <ele>138.47</ele>
        <time>2021-08-01T09:34:17.999Z</time>
      </trkpt>
      <trkpt lat="48.86277" lon="1.76246">
        <ele>139.52</ele>
        <time>2021-08-01T09:34:32.999Z</time>
      </trkpt>
      <trkpt lat="48.86261" lon="1.76232">
        <ele>141.51</ele>
        <time>2021-08-01T09:34:49.999Z</time>
      </trkpt>
      <trkpt lat="48.86242" lon="1.76227">
        <ele>140.23</ele>
        <time>2021-08-01T09:35:13.999Z</time>
      </trkpt>
      <trkpt lat="48.86231" lon="1.76206">
        <ele>139.89</ele>
        <time>2021-08-01T09:35:37.999Z</time>
      </trkpt>
      <trkpt lat="48.86231" lon="1.76178">
        <ele>140.21</ele>
        <time>2021-08-01T09:35:56.999Z</time>
      </trkpt>
      <trkpt lat="48.86226" lon="1.76151">
        <ele>139.6</ele>
        <time>2021-08-01T09:36:13.999Z</time>
      </trkpt>
      <trkpt lat="48.86232" lon="1.76125">
        <ele>139.14</ele>
        <time>2021-08-01T09:36:28.999Z</time>
      </trkpt>
      <trkpt lat="48.86233" lon="1.76096">
        <ele>138.93</ele>
        <time>2021-08-01T09:36:46.999Z</time>
      </trkpt>
      <trkpt lat="48.8623" lon="1.76069">
        <ele>137.5</ele>
        <time>2021-08-01T09:37:02.999Z</time>
      </trkpt>
      <trkpt lat="48.86235" lon="1.76043">
        <ele>136.88</ele>
        <time>2021-08-01T09:37:25.999Z</time>
      </trkpt>
      <trkpt lat="48.8623" lon="1.76015">
        <ele>135.4</ele>
        <time>2021-08-01T09:37:41.999Z</time>
      </trkpt>
      <trkpt lat="48.86235" lon="1.75988">
        <ele>134.93</ele>
        <time>2021-08-01T09:38:02.999Z</time>
      </trkpt>
      <trkpt lat="48.86237" lon="1.7596">
        <ele>135.24</ele>
        <time>2021-08-01T09:38:22.999Z</time>
      </trkpt>
      <trkpt lat="48.8624" lon="1.75932">
        <ele>135.17</ele>
        <time>2021-08-01T09:38:39.999Z</time>
      </trkpt>
      <trkpt lat="48.86247" lon="1.75905">
        <ele>134.72</ele>
        <time>2021-08-01T09:39:00.999Z</time>
      </trkpt>
      <trkpt lat="48.86256" lon="1.75881">
        <ele>134.35</ele>
        <time>2021-08-01T09:39:18.999Z</time>
      </trkpt>
      <trkpt lat="48.86266" lon="1.75857">
        <ele>133.72</ele>
        <time>2021-08-01T09:39:36.999Z</time>
      </trkpt>
      <trkpt lat="48.86277" lon="1.75836">
        <ele>132.32</ele>
        <time>2021-08-01T09:39:53.999Z</time>
      </trkpt>
      <trkpt lat="48.86291" lon="1.75818">
        <ele>131.47</ele>
        <time>2021-08-01T09:40:12.999Z</time>
      </trkpt>
      <trkpt lat="48.86306" lon="1.75802">
        <ele>130.58</ele>
        <time>2021-08-01T09:40:30.999Z</time>
      </trkpt>
      <trkpt lat="48.86319" lon="1.75782">
        <ele>130.47</ele>
        <time>2021-08-01T09:40:49.999Z</time>
      </trkpt>
      <trkpt lat="48.86328" lon="1.75756">
        <ele>129.85</ele>
        <time>2021-08-01T09:41:08.999Z</time>
      </trkpt>
      <trkpt lat="48.86337" lon="1.75731">
        <ele>129.05</ele>
        <time>2021-08-01T09:41:27.999Z</time>
      </trkpt>
      <trkpt lat="48.86345" lon="1.75706">
        <ele>128.73</ele>
        <time>2021-08-01T09:41:44.999Z</time>
      </trkpt>
      <trkpt lat="48.86353" lon="1.75682">
        <ele>127.83</ele>
        <time>2021-08-01T09:42:07.000Z</time>
      </trkpt>
      <trkpt lat="48.86362" lon="1.75657">
        <ele>127.3</ele>
        <time>2021-08-01T09:42:26.000Z</time>
      </trkpt>
      <trkpt lat="48.86365" lon="1.75629">
        <ele>126.41</ele>
        <time>2021-08-01T09:42:47.000Z</time>
      </trkpt>
      <trkpt lat="48.86372" lon="1.75603">
        <ele>124.34</ele>
        <time>2021-08-01T09:43:06.000Z</time>
      </trkpt>
      <trkpt lat="48.8638" lon="1.75577">
        <ele>123.12</ele>
        <time>2021-08-01T09:43:25.000Z</time>
      </trkpt>
      <trkpt lat="48.86388" lon="1.75552">
        <ele>122.69</ele>
        <time>2021-08-01T09:43:42.000Z</time>
      </trkpt>
      <trkpt lat="48.86398" lon="1.75528">
        <ele>122.22</ele>
        <time>2021-08-01T09:43:59.000Z</time>
      </trkpt>
      <trkpt lat="48.86407" lon="1.75504">
        <ele>122.57</ele>
        <time>2021-08-01T09:44:18.000Z</time>
      </trkpt>
      <trkpt lat="48.86416" lon="1.75479">
        <ele>122.31</ele>
        <time>2021-08-01T09:44:35.000Z</time>
      </trkpt>
      <trkpt lat="48.86428" lon="1.75458">
        <ele>121.9</ele>
        <time>2021-08-01T09:44:50.000Z</time>
      </trkpt>
      <trkpt lat="48.8644" lon="1.75436">
        <ele>121.56</ele>
        <time>2021-08-01T09:45:08.000Z</time>
      </trkpt>
      <trkpt lat="48.86452" lon="1.75415">
        <ele>120.98</ele>
        <time>2021-08-01T09:45:26.000Z</time>
      </trkpt>
      <trkpt lat="48.86465" lon="1.75394">
        <ele>120.97</ele>
        <time>2021-08-01T09:45:42.000Z</time>
      </trkpt>
      <trkpt lat="48.86478" lon="1.75373">
        <ele>121.52</ele>
        <time>2021-08-01T09:45:58.000Z</time>
      </trkpt>
      <trkpt lat="48.86486" lon="1.75348">
        <ele>122.44</ele>
        <time>2021-08-01T09:46:15.000Z</time>
      </trkpt>
      <trkpt lat="48.86495" lon="1.75322">
        <ele>122.53</ele>
        <time>2021-08-01T09:46:32.000Z</time>
      </trkpt>
      <trkpt lat="48.86505" lon="1.75299">
        <ele>122.63</ele>
        <time>2021-08-01T09:46:48.000Z</time>
      </trkpt>
      <trkpt lat="48.86517" lon="1.75277">
        <ele>123.32</ele>
        <time>2021-08-01T09:47:03.000Z</time>
      </trkpt>
      <trkpt lat="48.86528" lon="1.75254">
        <ele>124.37</ele>
        <time>2021-08-01T09:47:20.000Z</time>
      </trkpt>
      <trkpt lat="48.86536" lon="1.75229">
        <ele>125.02</ele>
        <time>2021-08-01T09:47:36.000Z</time>
      </trkpt>
      <trkpt lat="48.86545" lon="1.75203">
        <ele>124.42</ele>
        <time>2021-08-01T09:47:53.000Z</time>
      </trkpt>
      <trkpt lat="48.86557" lon="1.7518">
        <ele>124.15</ele>
        <time>2021-08-01T09:48:09.000Z</time>
      </trkpt>
      <trkpt lat="48.86567" lon="1.75158">
        <ele>124.2</ele>
        <time>2021-08-01T09:48:24.000Z</time>
      </trkpt>
      <trkpt lat="48.86578" lon="1.75135">
        <ele>123.92</ele>
        <time>2021-08-01T09:48:40.000Z</time>
      </trkpt>
      <trkpt lat="48.8657" lon="1.75111">
        <ele>133.53</ele>
        <time>2021-08-01T09:51:09.000Z</time>
      </trkpt>
      <trkpt lat="48.86556" lon="1.75091">
        <ele>137.02</ele>
        <time>2021-08-01T09:51:30.000Z</time>
      </trkpt>
      <trkpt lat="48.86545" lon="1.7507">
        <ele>138.58</ele>
        <time>2021-08-01T09:51:44.000Z</time>
      </trkpt>
      <trkpt lat="48.86532" lon="1.75051">
        <ele>139.71</ele>
        <time>2021-08-01T09:52:02.000Z</time>
      </trkpt>
      <trkpt lat="48.8652" lon="1.75029">
        <ele>139.9</ele>
        <time>2021-08-01T09:52:18.000Z</time>
      </trkpt>
      <trkpt lat="48.86506" lon="1.75008">
        <ele>140.39</ele>
        <time>2021-08-01T09:52:35.000Z</time>
      </trkpt>
      <trkpt lat="48.86495" lon="1.74986">
        <ele>140.91</ele>
        <time>2021-08-01T09:52:52.000Z</time>
      </trkpt>
      <trkpt lat="48.86482" lon="1.74963">
        <ele>140.49</ele>
        <time>2021-08-01T09:53:15.999Z</time>
      </trkpt>
      <trkpt lat="48.86472" lon="1.7494">
        <ele>138.09</ele>
        <time>2021-08-01T09:53:42.999Z</time>
      </trkpt>
      <trkpt lat="48.86458" lon="1.74922">
        <ele>136.47</ele>
        <time>2021-08-01T09:54:00.999Z</time>
      </trkpt>
      <trkpt lat="48.86446" lon="1.74899">
        <ele>135.52</ele>
        <time>2021-08-01T09:54:21.999Z</time>
      </trkpt>
      <trkpt lat="48.86434" lon="1.74874">
        <ele>135.25</ele>
        <time>2021-08-01T09:54:39.999Z</time>
      </trkpt>
      <trkpt lat="48.86421" lon="1.74855">
        <ele>136.41</ele>
        <time>2021-08-01T09:54:56.999Z</time>
      </trkpt>
      <trkpt lat="48.86407" lon="1.74835">
        <ele>136.46</ele>
        <time>2021-08-01T09:55:15.999Z</time>
      </trkpt>
      <trkpt lat="48.86393" lon="1.74816">
        <ele>135.53</ele>
        <time>2021-08-01T09:55:33.999Z</time>
      </trkpt>
      <trkpt lat="48.86379" lon="1.74798">
        <ele>135.97</ele>
        <time>2021-08-01T09:55:49.999Z</time>
      </trkpt>
      <trkpt lat="48.86367" lon="1.74775">
        <ele>136.1</ele>
        <time>2021-08-01T09:56:06.999Z</time>
      </trkpt>
      <trkpt lat="48.86354" lon="1.74755">
        <ele>134.75</ele>
        <time>2021-08-01T09:56:23.999Z</time>
      </trkpt>
      <trkpt lat="48.86341" lon="1.74736">
        <ele>134.27</ele>
        <time>2021-08-01T09:56:44.999Z</time>
      </trkpt>
      <trkpt lat="48.8633" lon="1.74713">
        <ele>134.17</ele>
        <time>2021-08-01T09:57:02.999Z</time>
      </trkpt>
      <trkpt lat="48.86319" lon="1.74691">
        <ele>133.77</ele>
        <time>2021-08-01T09:57:19.999Z</time>
      </trkpt>
      <trkpt lat="48.86305" lon="1.74672">
        <ele>133.12</ele>
        <time>2021-08-01T09:57:37.999Z</time>
      </trkpt>
      <trkpt lat="48.8629" lon="1.74657">
        <ele>133.91</ele>
        <time>2021-08-01T09:58:04.999Z</time>
      </trkpt>
      <trkpt lat="48.86291" lon="1.74629">
        <ele>131.61</ele>
        <time>2021-08-01T09:59:23.999Z</time>
      </trkpt>
      <trkpt lat="48.86315" lon="1.74601">
        <ele>139.51</ele>
        <time>2021-08-01T10:14:59.643Z</time>
      </trkpt>
      <trkpt lat="48.86299" lon="1.7462">
        <ele>139.25</ele>
        <time>2021-08-01T10:15:00.651Z</time>
      </trkpt>
      <trkpt lat="48.86276" lon="1.74642">
        <ele>146.38</ele>
        <time>2021-08-01T10:20:55.427Z</time>
      </trkpt>
      <trkpt lat="48.86296" lon="1.74625">
        <ele>143.45</ele>
        <time>2021-08-01T10:25:50.825Z</time>
      </trkpt>
      <trkpt lat="48.86286" lon="1.7465">
        <ele>137.66</ele>
        <time>2021-08-01T10:45:34.000Z</time>
      </trkpt>
      <trkpt lat="48.86272" lon="1.74669">
        <ele>134.98</ele>
        <time>2021-08-01T10:48:04.000Z</time>
      </trkpt>
      <trkpt lat="48.86257" lon="1.74686">
        <ele>136.64</ele>
        <time>2021-08-01T10:48:25.999Z</time>
      </trkpt>
      <trkpt lat="48.86247" lon="1.74709">
        <ele>134.55</ele>
        <time>2021-08-01T10:48:56.999Z</time>
      </trkpt>
      <trkpt lat="48.86233" lon="1.74729">
        <ele>132.06</ele>
        <time>2021-08-01T10:49:48.999Z</time>
      </trkpt>
      <trkpt lat="48.86225" lon="1.74753">
        <ele>130.01</ele>
        <time>2021-08-01T10:50:12.999Z</time>
      </trkpt>
      <trkpt lat="48.86213" lon="1.74775">
        <ele>129.45</ele>
        <time>2021-08-01T10:50:47.999Z</time>
      </trkpt>
      <trkpt lat="48.86198" lon="1.74792">
        <ele>131.31</ele>
        <time>2021-08-01T10:51:11.999Z</time>
      </trkpt>
      <trkpt lat="48.86186" lon="1.74812">
        <ele>129.44</ele>
        <time>2021-08-01T10:51:33.999Z</time>
      </trkpt>
      <trkpt lat="48.86171" lon="1.74827">
        <ele>127.19</ele>
        <time>2021-08-01T10:52:03.999Z</time>
      </trkpt>
      <trkpt lat="48.86157" lon="1.74845">
        <ele>125.58</ele>
        <time>2021-08-01T10:52:24.999Z</time>
      </trkpt>
      <trkpt lat="48.8614" lon="1.74859">
        <ele>124.78</ele>
        <time>2021-08-01T10:52:41.999Z</time>
      </trkpt>
      <trkpt lat="48.86125" lon="1.74873">
        <ele>124.74</ele>
        <time>2021-08-01T10:52:57.999Z</time>
      </trkpt>
      <trkpt lat="48.86109" lon="1.74859">
        <ele>125.93</ele>
        <time>2021-08-01T10:53:26.999Z</time>
      </trkpt>
      <trkpt lat="48.86099" lon="1.74834">
        <ele>127.16</ele>
        <time>2021-08-01T10:53:43.999Z</time>
      </trkpt>
      <trkpt lat="48.86091" lon="1.74807">
        <ele>128.5</ele>
        <time>2021-08-01T10:54:03.999Z</time>
      </trkpt>
      <trkpt lat="48.8608" lon="1.74784">
        <ele>130.93</ele>
        <time>2021-08-01T10:54:20.999Z</time>
      </trkpt>
      <trkpt lat="48.86067" lon="1.74762">
        <ele>132.58</ele>
        <time>2021-08-01T10:54:41.999Z</time>
      </trkpt>
      <trkpt lat="48.86059" lon="1.74736">
        <ele>133.65</ele>
        <time>2021-08-01T10:55:00.999Z</time>
      </trkpt>
      <trkpt lat="48.86043" lon="1.74725">
        <ele>135.82</ele>
        <time>2021-08-01T10:55:17.999Z</time>
      </trkpt>
      <trkpt lat="48.86023" lon="1.74728">
        <ele>138.4</ele>
        <time>2021-08-01T10:55:48.999Z</time>
      </trkpt>
      <trkpt lat="48.86004" lon="1.74734">
        <ele>136.21</ele>
        <time>2021-08-01T10:56:03.999Z</time>
      </trkpt>
      <trkpt lat="48.85987" lon="1.74747">
        <ele>132.21</ele>
        <time>2021-08-01T10:56:24.999Z</time>
      </trkpt>
      <trkpt lat="48.85971" lon="1.74759">
        <ele>129.61</ele>
        <time>2021-08-01T10:56:45.999Z</time>
      </trkpt>
      <trkpt lat="48.85954" lon="1.7477">
        <ele>128.08</ele>
        <time>2021-08-01T10:57:08.999Z</time>
      </trkpt>
      <trkpt lat="48.85937" lon="1.74781">
        <ele>127.24</ele>
        <time>2021-08-01T10:57:32.999Z</time>
      </trkpt>
      <trkpt lat="48.85923" lon="1.74799">
        <ele>128.67</ele>
        <time>2021-08-01T11:01:00.000Z</time>
      </trkpt>
      <trkpt lat="48.85907" lon="1.74813">
        <ele>126.97</ele>
        <time>2021-08-01T11:01:28.000Z</time>
      </trkpt>
      <trkpt lat="48.85893" lon="1.7483">
        <ele>127.52</ele>
        <time>2021-08-01T11:01:53.000Z</time>
      </trkpt>
      <trkpt lat="48.85875" lon="1.74844">
        <ele>129.27</ele>
        <time>2021-08-01T11:02:19.000Z</time>
      </trkpt>
      <trkpt lat="48.85859" lon="1.74857">
        <ele>131.86</ele>
        <time>2021-08-01T11:02:44.000Z</time>
      </trkpt>
      <trkpt lat="48.85841" lon="1.74864">
        <ele>133.67</ele>
        <time>2021-08-01T11:03:03.000Z</time>
      </trkpt>
      <trkpt lat="48.85822" lon="1.74863">
        <ele>134.84</ele>
        <time>2021-08-01T11:03:25.000Z</time>
      </trkpt>
      <trkpt lat="48.85804" lon="1.74865">
        <ele>134.93</ele>
        <time>2021-08-01T11:03:45.000Z</time>
      </trkpt>
      <trkpt lat="48.85785" lon="1.74867">
        <ele>134.13</ele>
        <time>2021-08-01T11:04:05.000Z</time>
      </trkpt>
      <trkpt lat="48.85767" lon="1.74874">
        <ele>132.93</ele>
        <time>2021-08-01T11:04:26.000Z</time>
      </trkpt>
      <trkpt lat="48.85749" lon="1.7488">
        <ele>131.81</ele>
        <time>2021-08-01T11:04:45.000Z</time>
      </trkpt>
      <trkpt lat="48.85735" lon="1.74899">
        <ele>130.72</ele>
        <time>2021-08-01T11:05:24.000Z</time>
      </trkpt>
      <trkpt lat="48.85717" lon="1.74901">
        <ele>130.65</ele>
        <time>2021-08-01T11:05:36.000Z</time>
      </trkpt>
      <trkpt lat="48.85702" lon="1.74885">
        <ele>128.74</ele>
        <time>2021-08-01T11:06:18.000Z</time>
      </trkpt>
      <trkpt lat="48.85687" lon="1.74869">
        <ele>128.34</ele>
        <time>2021-08-01T11:06:39.000Z</time>
      </trkpt>
      <trkpt lat="48.85673" lon="1.74849">
        <ele>128.35</ele>
        <time>2021-08-01T11:06:59.000Z</time>
      </trkpt>
      <trkpt lat="48.85659" lon="1.7483">
        <ele>127.81</ele>
        <time>2021-08-01T11:07:22.000Z</time>
      </trkpt>
      <trkpt lat="48.85645" lon="1.74813">
        <ele>127.47</ele>
        <time>2021-08-01T11:07:38.000Z</time>
      </trkpt>
      <trkpt lat="48.85631" lon="1.74794">
        <ele>126.46</ele>
        <time>2021-08-01T11:07:57.000Z</time>
      </trkpt>
      <trkpt lat="48.85617" lon="1.74775">
        <ele>125.31</ele>
        <time>2021-08-01T11:08:13.000Z</time>
      </trkpt>
      <trkpt lat="48.8561" lon="1.7475">
        <ele>124.78</ele>
        <time>2021-08-01T11:08:48.000Z</time>
      </trkpt>
      <trkpt lat="48.85598" lon="1.74729">
        <ele>126.51</ele>
        <time>2021-08-01T11:10:32.999Z</time>
      </trkpt>
      <trkpt lat="48.85585" lon="1.74708">
        <ele>126.75</ele>
        <time>2021-08-01T11:10:53.999Z</time>
      </trkpt>
      <trkpt lat="48.85572" lon="1.74689">
        <ele>126.78</ele>
        <time>2021-08-01T11:11:14.999Z</time>
      </trkpt>
      <trkpt lat="48.85557" lon="1.74673">
        <ele>126.49</ele>
        <time>2021-08-01T11:11:36.999Z</time>
      </trkpt>
      <trkpt lat="48.85539" lon="1.74665">
        <ele>126.91</ele>
        <time>2021-08-01T11:11:58.999Z</time>
      </trkpt>
      <trkpt lat="48.85522" lon="1.74656">
        <ele>127.89</ele>
        <time>2021-08-01T11:12:17.999Z</time>
      </trkpt>
      <trkpt lat="48.85504" lon="1.74646">
        <ele>128.31</ele>
        <time>2021-08-01T11:12:37.999Z</time>
      </trkpt>
      <trkpt lat="48.85486" lon="1.74638">
        <ele>129.37</ele>
        <time>2021-08-01T11:13:01.999Z</time>
      </trkpt>
      <trkpt lat="48.85467" lon="1.74631">
        <ele>128</ele>
        <time>2021-08-01T11:13:58.999Z</time>
      </trkpt>
      <trkpt lat="48.85451" lon="1.7462">
        <ele>127.64</ele>
        <time>2021-08-01T11:14:20.999Z</time>
      </trkpt>
      <trkpt lat="48.85433" lon="1.74612">
        <ele>127.79</ele>
        <time>2021-08-01T11:14:53.999Z</time>
      </trkpt>
      <trkpt lat="48.85429" lon="1.74585">
        <ele>125.17</ele>
        <time>2021-08-01T11:15:52.999Z</time>
      </trkpt>
      <trkpt lat="48.85435" lon="1.7456">
        <ele>124.11</ele>
        <time>2021-08-01T11:16:11.999Z</time>
      </trkpt>
      <trkpt lat="48.85442" lon="1.74534">
        <ele>123.17</ele>
        <time>2021-08-01T11:16:30.999Z</time>
      </trkpt>
      <trkpt lat="48.85428" lon="1.74515">
        <ele>119.32</ele>
        <time>2021-08-01T11:17:10.999Z</time>
      </trkpt>
      <trkpt lat="48.8541" lon="1.74511">
        <ele>114.41</ele>
        <time>2021-08-01T11:17:33.999Z</time>
      </trkpt>
      <trkpt lat="48.85392" lon="1.74506">
        <ele>109.98</ele>
        <time>2021-08-01T11:17:56.999Z</time>
      </trkpt>
      <trkpt lat="48.85375" lon="1.74493">
        <ele>108.73</ele>
        <time>2021-08-01T11:18:30.999Z</time>
      </trkpt>
      <trkpt lat="48.85359" lon="1.74479">
        <ele>107.06</ele>
        <time>2021-08-01T11:18:50.999Z</time>
      </trkpt>
      <trkpt lat="48.85341" lon="1.74473">
        <ele>105.92</ele>
        <time>2021-08-01T11:19:12.999Z</time>
      </trkpt>
      <trkpt lat="48.85324" lon="1.74463">
        <ele>104.93</ele>
        <time>2021-08-01T11:19:32.999Z</time>
      </trkpt>
      <trkpt lat="48.85307" lon="1.74454">
        <ele>103.53</ele>
        <time>2021-08-01T11:19:53.999Z</time>
      </trkpt>
      <trkpt lat="48.8529" lon="1.74439">
        <ele>102.3</ele>
        <time>2021-08-01T11:20:09.999Z</time>
      </trkpt>
      <trkpt lat="48.85275" lon="1.74425">
        <ele>101.42</ele>
        <time>2021-08-01T11:20:26.999Z</time>
      </trkpt>
      <trkpt lat="48.85259" lon="1.74411">
        <ele>100.88</ele>
        <time>2021-08-01T11:20:40.999Z</time>
      </trkpt>
      <trkpt lat="48.85243" lon="1.74396">
        <ele>100.5</ele>
        <time>2021-08-01T11:21:01.999Z</time>
      </trkpt>
      <trkpt lat="48.85226" lon="1.74387">
        <ele>112.88</ele>
        <time>2021-08-01T11:23:38.000Z</time>
      </trkpt>
      <trkpt lat="48.85221" lon="1.74414">
        <ele>115.62</ele>
        <time>2021-08-01T11:23:58.000Z</time>
      </trkpt>
      <trkpt lat="48.85215" lon="1.74441">
        <ele>117.17</ele>
        <time>2021-08-01T11:24:20.000Z</time>
      </trkpt>
      <trkpt lat="48.85203" lon="1.74463">
        <ele>117.45</ele>
        <time>2021-08-01T11:24:33.000Z</time>
      </trkpt>
      <trkpt lat="48.85195" lon="1.74488">
        <ele>119.37</ele>
        <time>2021-08-01T11:24:52.000Z</time>
      </trkpt>
      <trkpt lat="48.85182" lon="1.74508">
        <ele>120.42</ele>
        <time>2021-08-01T11:25:09.000Z</time>
      </trkpt>
      <trkpt lat="48.8517" lon="1.74529">
        <ele>120.78</ele>
        <time>2021-08-01T11:25:26.000Z</time>
      </trkpt>
      <trkpt lat="48.85155" lon="1.74547">
        <ele>121.01</ele>
        <time>2021-08-01T11:25:45.000Z</time>
      </trkpt>
      <trkpt lat="48.8514" lon="1.74563">
        <ele>120.19</ele>
        <time>2021-08-01T11:26:03.000Z</time>
      </trkpt>
      <trkpt lat="48.85126" lon="1.7458">
        <ele>119.05</ele>
        <time>2021-08-01T11:26:21.000Z</time>
      </trkpt>
      <trkpt lat="48.8511" lon="1.74595">
        <ele>118.33</ele>
        <time>2021-08-01T11:26:53.000Z</time>
      </trkpt>
      <trkpt lat="48.85096" lon="1.74613">
        <ele>119.17</ele>
        <time>2021-08-01T11:27:38.000Z</time>
      </trkpt>
      <trkpt lat="48.85078" lon="1.74626">
        <ele>120.19</ele>
        <time>2021-08-01T11:28:00.000Z</time>
      </trkpt>
      <trkpt lat="48.85066" lon="1.74646">
        <ele>120.5</ele>
        <time>2021-08-01T11:28:15.000Z</time>
      </trkpt>
      <trkpt lat="48.85058" lon="1.74672">
        <ele>121.84</ele>
        <time>2021-08-01T11:28:34.000Z</time>
      </trkpt>
      <trkpt lat="48.8505" lon="1.74698">
        <ele>124.19</ele>
        <time>2021-08-01T11:28:55.000Z</time>
      </trkpt>
      <trkpt lat="48.85046" lon="1.74726">
        <ele>123.94</ele>
        <time>2021-08-01T11:29:13.000Z</time>
      </trkpt>
      <trkpt lat="48.8506" lon="1.74745">
        <ele>122.75</ele>
        <time>2021-08-01T11:29:34.000Z</time>
      </trkpt>
      <trkpt lat="48.85071" lon="1.74771">
        <ele>122.18</ele>
        <time>2021-08-01T11:29:50.000Z</time>
      </trkpt>
      <trkpt lat="48.85088" lon="1.74782">
        <ele>118.14</ele>
        <time>2021-08-01T11:30:11.000Z</time>
      </trkpt>
      <trkpt lat="48.85101" lon="1.74803">
        <ele>114.06</ele>
        <time>2021-08-01T11:30:31.000Z</time>
      </trkpt>
      <trkpt lat="48.85108" lon="1.74828">
        <ele>115.64</ele>
        <time>2021-08-01T11:30:44.000Z</time>
      </trkpt>
      <trkpt lat="48.85121" lon="1.74848">
        <ele>118.24</ele>
        <time>2021-08-01T11:30:57.000Z</time>
      </trkpt>
      <trkpt lat="48.85133" lon="1.74868">
        <ele>118</ele>
        <time>2021-08-01T11:31:21.000Z</time>
      </trkpt>
      <trkpt lat="48.85143" lon="1.74891">
        <ele>114.9</ele>
        <time>2021-08-01T11:31:35.000Z</time>
      </trkpt>
      <trkpt lat="48.85151" lon="1.74917">
        <ele>114.48</ele>
        <time>2021-08-01T11:31:50.000Z</time>
      </trkpt>
      <trkpt lat="48.85157" lon="1.74943">
        <ele>114.9</ele>
        <time>2021-08-01T11:32:08.000Z</time>
      </trkpt>
      <trkpt lat="48.85162" lon="1.74971">
        <ele>116.26</ele>
        <time>2021-08-01T11:32:25.999Z</time>
      </trkpt>
      <trkpt lat="48.85167" lon="1.74998">
        <ele>118.51</ele>
        <time>2021-08-01T11:32:42.999Z</time>
      </trkpt>
      <trkpt lat="48.8517" lon="1.75025">
        <ele>120.66</ele>
        <time>2021-08-01T11:33:02.999Z</time>
      </trkpt>
      <trkpt lat="48.85173" lon="1.75053">
        <ele>121.66</ele>
        <time>2021-08-01T11:33:21.999Z</time>
      </trkpt>
      <trkpt lat="48.85172" lon="1.75082">
        <ele>121.9</ele>
        <time>2021-08-01T11:33:40.999Z</time>
      </trkpt>
      <trkpt lat="48.85166" lon="1.75109">
        <ele>121.76</ele>
        <time>2021-08-01T11:33:58.999Z</time>
      </trkpt>
      <trkpt lat="48.8516" lon="1.75136">
        <ele>121.29</ele>
        <time>2021-08-01T11:34:15.999Z</time>
      </trkpt>
      <trkpt lat="48.85155" lon="1.75163">
        <ele>121.38</ele>
        <time>2021-08-01T11:34:34.999Z</time>
      </trkpt>
      <trkpt lat="48.85145" lon="1.75188">
        <ele>121.87</ele>
        <time>2021-08-01T11:34:53.999Z</time>
      </trkpt>
      <trkpt lat="48.8513" lon="1.75204">
        <ele>124.02</ele>
        <time>2021-08-01T11:35:09.999Z</time>
      </trkpt>
      <trkpt lat="48.85116" lon="1.75224">
        <ele>125.48</ele>
        <time>2021-08-01T11:35:26.999Z</time>
      </trkpt>
      <trkpt lat="48.85107" lon="1.75248">
        <ele>125.18</ele>
        <time>2021-08-01T11:35:44.999Z</time>
      </trkpt>
      <trkpt lat="48.85097" lon="1.7527">
        <ele>125.56</ele>
        <time>2021-08-01T11:36:04.999Z</time>
      </trkpt>
      <trkpt lat="48.85111" lon="1.75289">
        <ele>125.55</ele>
        <time>2021-08-01T11:36:27.999Z</time>
      </trkpt>
      <trkpt lat="48.85123" lon="1.75311">
        <ele>125.14</ele>
        <time>2021-08-01T11:36:43.999Z</time>
      </trkpt>
      <trkpt lat="48.85133" lon="1.75335">
        <ele>125.47</ele>
        <time>2021-08-01T11:37:06.999Z</time>
      </trkpt>
      <trkpt lat="48.85144" lon="1.75357">
        <ele>128.38</ele>
        <time>2021-08-01T11:37:49.999Z</time>
      </trkpt>
      <trkpt lat="48.85159" lon="1.75374">
        <ele>128.55</ele>
        <time>2021-08-01T11:38:27.999Z</time>
      </trkpt>
      <trkpt lat="48.85171" lon="1.75395">
        <ele>127.25</ele>
        <time>2021-08-01T11:38:48.999Z</time>
      </trkpt>
      <trkpt lat="48.85184" lon="1.75417">
        <ele>125.77</ele>
        <time>2021-08-01T11:39:06.999Z</time>
      </trkpt>
      <trkpt lat="48.85196" lon="1.75438">
        <ele>125.9</ele>
        <time>2021-08-01T11:39:26.999Z</time>
      </trkpt>
      <trkpt lat="48.8521" lon="1.75456">
        <ele>124.94</ele>
        <time>2021-08-01T11:39:47.999Z</time>
      </trkpt>
      <trkpt lat="48.85225" lon="1.75475">
        <ele>121.86</ele>
        <time>2021-08-01T11:40:10.999Z</time>
      </trkpt>
      <trkpt lat="48.85239" lon="1.75494">
        <ele>120.48</ele>
        <time>2021-08-01T11:40:33.999Z</time>
      </trkpt>
      <trkpt lat="48.85253" lon="1.7551">
        <ele>118.22</ele>
        <time>2021-08-01T11:40:57.999Z</time>
      </trkpt>
      <trkpt lat="48.85267" lon="1.75528">
        <ele>117.82</ele>
        <time>2021-08-01T11:41:18.999Z</time>
      </trkpt>
      <trkpt lat="48.85267" lon="1.75556">
        <ele>121.41</ele>
        <time>2021-08-01T11:42:05.999Z</time>
      </trkpt>
      <trkpt lat="48.85256" lon="1.75579">
        <ele>124.57</ele>
        <time>2021-08-01T11:42:27.999Z</time>
      </trkpt>
      <trkpt lat="48.85247" lon="1.75603">
        <ele>127.53</ele>
        <time>2021-08-01T11:42:47.999Z</time>
      </trkpt>
      <trkpt lat="48.85237" lon="1.75627">
        <ele>129.07</ele>
        <time>2021-08-01T11:43:06.999Z</time>
      </trkpt>
      <trkpt lat="48.85226" lon="1.7565">
        <ele>130.4</ele>
        <time>2021-08-01T11:43:25.000Z</time>
      </trkpt>
      <trkpt lat="48.85214" lon="1.75673">
        <ele>131.57</ele>
        <time>2021-08-01T11:43:51.000Z</time>
      </trkpt>
      <trkpt lat="48.85204" lon="1.75695">
        <ele>131.56</ele>
        <time>2021-08-01T11:44:11.000Z</time>
      </trkpt>
      <trkpt lat="48.85194" lon="1.7572">
        <ele>131.94</ele>
        <time>2021-08-01T11:44:31.000Z</time>
      </trkpt>
      <trkpt lat="48.85184" lon="1.75744">
        <ele>132.35</ele>
        <time>2021-08-01T11:44:49.000Z</time>
      </trkpt>
      <trkpt lat="48.85174" lon="1.75767">
        <ele>132.16</ele>
        <time>2021-08-01T11:45:10.000Z</time>
      </trkpt>
      <trkpt lat="48.85165" lon="1.75792">
        <ele>131.85</ele>
        <time>2021-08-01T11:45:30.000Z</time>
      </trkpt>
      <trkpt lat="48.85153" lon="1.75814">
        <ele>131.85</ele>
        <time>2021-08-01T11:45:48.000Z</time>
      </trkpt>
      <trkpt lat="48.85143" lon="1.75839">
        <ele>132.08</ele>
        <time>2021-08-01T11:46:06.000Z</time>
      </trkpt>
      <trkpt lat="48.85132" lon="1.75861">
        <ele>132.59</ele>
        <time>2021-08-01T11:46:23.000Z</time>
      </trkpt>
      <trkpt lat="48.85123" lon="1.75886">
        <ele>133.01</ele>
        <time>2021-08-01T11:46:41.000Z</time>
      </trkpt>
      <trkpt lat="48.85114" lon="1.7591">
        <ele>132.84</ele>
        <time>2021-08-01T11:46:59.000Z</time>
      </trkpt>
      <trkpt lat="48.85103" lon="1.75932">
        <ele>132.06</ele>
        <time>2021-08-01T11:47:24.000Z</time>
      </trkpt>
      <trkpt lat="48.85094" lon="1.75956">
        <ele>128.72</ele>
        <time>2021-08-01T11:48:22.000Z</time>
      </trkpt>
      <trkpt lat="48.85083" lon="1.75978">
        <ele>128.78</ele>
        <time>2021-08-01T11:48:37.000Z</time>
      </trkpt>
      <trkpt lat="48.85075" lon="1.76002">
        <ele>128.78</ele>
        <time>2021-08-01T11:48:54.000Z</time>
      </trkpt>
      <trkpt lat="48.85064" lon="1.76027">
        <ele>128.74</ele>
        <time>2021-08-01T11:49:16.000Z</time>
      </trkpt>
      <trkpt lat="48.85053" lon="1.76049">
        <ele>128.95</ele>
        <time>2021-08-01T11:50:03.000Z</time>
      </trkpt>
      <trkpt lat="48.85045" lon="1.76074">
        <ele>129.04</ele>
        <time>2021-08-01T11:50:39.000Z</time>
      </trkpt>
      <trkpt lat="48.85034" lon="1.76097">
        <ele>129.14</ele>
        <time>2021-08-01T11:50:58.000Z</time>
      </trkpt>
      <trkpt lat="48.85024" lon="1.7612">
        <ele>129.78</ele>
        <time>2021-08-01T11:51:15.000Z</time>
      </trkpt>
      <trkpt lat="48.85014" lon="1.76144">
        <ele>129.89</ele>
        <time>2021-08-01T11:51:33.000Z</time>
      </trkpt>
      <trkpt lat="48.85006" lon="1.76169">
        <ele>129.19</ele>
        <time>2021-08-01T11:51:51.000Z</time>
      </trkpt>
      <trkpt lat="48.84995" lon="1.7619">
        <ele>129.62</ele>
        <time>2021-08-01T11:52:06.000Z</time>
      </trkpt>
      <trkpt lat="48.84987" lon="1.76215">
        <ele>130.09</ele>
        <time>2021-08-01T11:52:25.000Z</time>
      </trkpt>
      <trkpt lat="48.84976" lon="1.7624">
        <ele>130.05</ele>
        <time>2021-08-01T11:52:45.000Z</time>
      </trkpt>
      <trkpt lat="48.84969" lon="1.76266">
        <ele>129.6</ele>
        <time>2021-08-01T11:53:04.000Z</time>
      </trkpt>
      <trkpt lat="48.8496" lon="1.76289">
        <ele>128.61</ele>
        <time>2021-08-01T11:53:22.000Z</time>
      </trkpt>
      <trkpt lat="48.84948" lon="1.76311">
        <ele>128.49</ele>
        <time>2021-08-01T11:53:39.000Z</time>
      </trkpt>
      <trkpt lat="48.8494" lon="1.76337">
        <ele>128.98</ele>
        <time>2021-08-01T11:53:58.000Z</time>
      </trkpt>
      <trkpt lat="48.84932" lon="1.76363">
        <ele>129.21</ele>
        <time>2021-08-01T11:54:18.000Z</time>
      </trkpt>
      <trkpt lat="48.84922" lon="1.76386">
        <ele>129.3</ele>
        <time>2021-08-01T11:54:34.999Z</time>
      </trkpt>
      <trkpt lat="48.84908" lon="1.76407">
        <ele>128.77</ele>
        <time>2021-08-01T11:54:52.999Z</time>
      </trkpt>
      <trkpt lat="48.84896" lon="1.76428">
        <ele>128.48</ele>
        <time>2021-08-01T11:55:11.999Z</time>
      </trkpt>
      <trkpt lat="48.84883" lon="1.76447">
        <ele>127.36</ele>
        <time>2021-08-01T11:55:30.999Z</time>
      </trkpt>
      <trkpt lat="48.84868" lon="1.76463">
        <ele>126.81</ele>
        <time>2021-08-01T11:55:46.999Z</time>
      </trkpt>
      <trkpt lat="48.84854" lon="1.76482">
        <ele>126.84</ele>
        <time>2021-08-01T11:56:03.999Z</time>
      </trkpt>
      <trkpt lat="48.8484" lon="1.76501">
        <ele>127.46</ele>
        <time>2021-08-01T11:56:21.999Z</time>
      </trkpt>
      <trkpt lat="48.84826" lon="1.76519">
        <ele>127.95</ele>
        <time>2021-08-01T11:56:37.999Z</time>
      </trkpt>
      <trkpt lat="48.84811" lon="1.76536">
        <ele>128.6</ele>
        <time>2021-08-01T11:56:54.999Z</time>
      </trkpt>
      <trkpt lat="48.84798" lon="1.76557">
        <ele>128.47</ele>
        <time>2021-08-01T11:57:12.999Z</time>
      </trkpt>
      <trkpt lat="48.84784" lon="1.76575">
        <ele>128.13</ele>
        <time>2021-08-01T11:57:32.999Z</time>
      </trkpt>
      <trkpt lat="48.8477" lon="1.76594">
        <ele>128.06</ele>
        <time>2021-08-01T11:57:50.999Z</time>
      </trkpt>
      <trkpt lat="48.84755" lon="1.76612">
        <ele>128.13</ele>
        <time>2021-08-01T11:58:06.999Z</time>
      </trkpt>
      <trkpt lat="48.84742" lon="1.76631">
        <ele>128.43</ele>
        <time>2021-08-01T11:58:24.999Z</time>
      </trkpt>
      <trkpt lat="48.8473" lon="1.76652">
        <ele>128.78</ele>
        <time>2021-08-01T11:58:44.999Z</time>
      </trkpt>
      <trkpt lat="48.84719" lon="1.76674">
        <ele>129.38</ele>
        <time>2021-08-01T11:59:11.999Z</time>
      </trkpt>
      <trkpt lat="48.847" lon="1.76673">
        <ele>130.22</ele>
        <time>2021-08-01T12:00:01.999Z</time>
      </trkpt>
      <trkpt lat="48.84695" lon="1.76646">
        <ele>128.29</ele>
        <time>2021-08-01T12:00:45.999Z</time>
      </trkpt>
      <trkpt lat="48.84687" lon="1.7667">
        <ele>126.77</ele>
        <time>2021-08-01T12:01:45.999Z</time>
      </trkpt>
      <trkpt lat="48.84688" lon="1.76697">
        <ele>128.12</ele>
        <time>2021-08-01T12:02:15.999Z</time>
      </trkpt>
      <trkpt lat="48.84681" lon="1.76723">
        <ele>125.88</ele>
        <time>2021-08-01T12:03:48.999Z</time>
      </trkpt>
      <trkpt lat="48.84681" lon="1.76751">
        <ele>126.63</ele>
        <time>2021-08-01T12:04:10.999Z</time>
      </trkpt>
      <trkpt lat="48.84672" lon="1.76776">
        <ele>125.95</ele>
        <time>2021-08-01T12:04:26.999Z</time>
      </trkpt>
      <trkpt lat="48.84665" lon="1.76802">
        <ele>125.16</ele>
        <time>2021-08-01T12:04:42.999Z</time>
      </trkpt>
      <trkpt lat="48.84659" lon="1.76828">
        <ele>124.52</ele>
        <time>2021-08-01T12:04:55.999Z</time>
      </trkpt>
      <trkpt lat="48.84658" lon="1.76856">
        <ele>124.86</ele>
        <time>2021-08-01T12:05:45.000Z</time>
      </trkpt>
      <trkpt lat="48.84663" lon="1.76883">
        <ele>125.33</ele>
        <time>2021-08-01T12:06:04.000Z</time>
      </trkpt>
      <trkpt lat="48.84667" lon="1.7691">
        <ele>125.09</ele>
        <time>2021-08-01T12:06:21.000Z</time>
      </trkpt>
      <trkpt lat="48.84667" lon="1.76938">
        <ele>124.28</ele>
        <time>2021-08-01T12:06:38.000Z</time>
      </trkpt>
      <trkpt lat="48.84663" lon="1.76965">
        <ele>123.64</ele>
        <time>2021-08-01T12:06:53.000Z</time>
      </trkpt>
      <trkpt lat="48.84655" lon="1.7699">
        <ele>122.99</ele>
        <time>2021-08-01T12:07:10.000Z</time>
      </trkpt>
      <trkpt lat="48.84646" lon="1.77014">
        <ele>123.03</ele>
        <time>2021-08-01T12:07:26.000Z</time>
      </trkpt>
      <trkpt lat="48.84636" lon="1.77037">
        <ele>122.89</ele>
        <time>2021-08-01T12:07:43.000Z</time>
      </trkpt>
      <trkpt lat="48.84624" lon="1.77059">
        <ele>123.59</ele>
        <time>2021-08-01T12:08:01.000Z</time>
      </trkpt>
      <trkpt lat="48.84612" lon="1.77079">
        <ele>123.91</ele>
        <time>2021-08-01T12:08:17.000Z</time>
      </trkpt>
      <trkpt lat="48.846" lon="1.771">
        <ele>124.29</ele>
        <time>2021-08-01T12:08:35.000Z</time>
      </trkpt>
      <trkpt lat="48.84587" lon="1.77121">
        <ele>123.39</ele>
        <time>2021-08-01T12:08:52.000Z</time>
      </trkpt>
      <trkpt lat="48.84575" lon="1.77142">
        <ele>123.13</ele>
        <time>2021-08-01T12:09:08.000Z</time>
      </trkpt>
      <trkpt lat="48.84563" lon="1.77162">
        <ele>122.66</ele>
        <time>2021-08-01T12:09:25.000Z</time>
      </trkpt>
      <trkpt lat="48.84551" lon="1.77184">
        <ele>122.09</ele>
        <time>2021-08-01T12:09:41.000Z</time>
      </trkpt>
      <trkpt lat="48.84538" lon="1.77204">
        <ele>121.01</ele>
        <time>2021-08-01T12:09:57.000Z</time>
      </trkpt>
      <trkpt lat="48.84524" lon="1.77224">
        <ele>119.97</ele>
        <time>2021-08-01T12:10:13.000Z</time>
      </trkpt>
      <trkpt lat="48.84512" lon="1.77246">
        <ele>119.15</ele>
        <time>2021-08-01T12:10:29.000Z</time>
      </trkpt>
      <trkpt lat="48.84498" lon="1.77268">
        <ele>119.45</ele>
        <time>2021-08-01T12:10:45.000Z</time>
      </trkpt>
      <trkpt lat="48.84486" lon="1.77289">
        <ele>120.54</ele>
        <time>2021-08-01T12:11:01.000Z</time>
      </trkpt>
      <trkpt lat="48.84474" lon="1.77311">
        <ele>120.38</ele>
        <time>2021-08-01T12:11:18.000Z</time>
      </trkpt>
      <trkpt lat="48.84464" lon="1.77333">
        <ele>118.9</ele>
        <time>2021-08-01T12:11:35.000Z</time>
      </trkpt>
      <trkpt lat="48.84452" lon="1.77355">
        <ele>117.99</ele>
        <time>2021-08-01T12:11:50.000Z</time>
      </trkpt>
      <trkpt lat="48.84442" lon="1.77378">
        <ele>117.23</ele>
        <time>2021-08-01T12:12:06.000Z</time>
      </trkpt>
      <trkpt lat="48.84431" lon="1.774">
        <ele>117.1</ele>
        <time>2021-08-01T12:12:22.000Z</time>
      </trkpt>
      <trkpt lat="48.84422" lon="1.77425">
        <ele>115.96</ele>
        <time>2021-08-01T12:12:39.000Z</time>
      </trkpt>
      <trkpt lat="48.84416" lon="1.77452">
        <ele>115.73</ele>
        <time>2021-08-01T12:13:09.000Z</time>
      </trkpt>
      <trkpt lat="48.84411" lon="1.7748">
        <ele>114.3</ele>
        <time>2021-08-01T12:13:28.000Z</time>
      </trkpt>
      <trkpt lat="48.84404" lon="1.77507">
        <ele>113.59</ele>
        <time>2021-08-01T12:13:46.000Z</time>
      </trkpt>
      <trkpt lat="48.84396" lon="1.77533">
        <ele>113.66</ele>
        <time>2021-08-01T12:14:04.000Z</time>
      </trkpt>
      <trkpt lat="48.84394" lon="1.77561">
        <ele>113.04</ele>
        <time>2021-08-01T12:14:23.000Z</time>
      </trkpt>
      <trkpt lat="48.84394" lon="1.77589">
        <ele>113.94</ele>
        <time>2021-08-01T12:14:43.000Z</time>
      </trkpt>
      <trkpt lat="48.84411" lon="1.77602">
        <ele>117.19</ele>
        <time>2021-08-01T12:15:07.000Z</time>
      </trkpt>
      <trkpt lat="48.84426" lon="1.77617">
        <ele>119.98</ele>
        <time>2021-08-01T12:15:26.000Z</time>
      </trkpt>
      <trkpt lat="48.84442" lon="1.77632">
        <ele>123</ele>
        <time>2021-08-01T12:15:42.000Z</time>
      </trkpt>
      <trkpt lat="48.84459" lon="1.77643">
        <ele>125.46</ele>
        <time>2021-08-01T12:15:59.000Z</time>
      </trkpt>
      <trkpt lat="48.84476" lon="1.7765">
        <ele>126.68</ele>
        <time>2021-08-01T12:16:16.000Z</time>
      </trkpt>
      <trkpt lat="48.84492" lon="1.77665">
        <ele>126.9</ele>
        <time>2021-08-01T12:16:33.999Z</time>
      </trkpt>
      <trkpt lat="48.84508" lon="1.77681">
        <ele>127.86</ele>
        <time>2021-08-01T12:16:50.999Z</time>
      </trkpt>
      <trkpt lat="48.84525" lon="1.77691">
        <ele>128.35</ele>
        <time>2021-08-01T12:17:08.999Z</time>
      </trkpt>
      <trkpt lat="48.84543" lon="1.777">
        <ele>128.62</ele>
        <time>2021-08-01T12:17:26.999Z</time>
      </trkpt>
      <trkpt lat="48.84562" lon="1.77705">
        <ele>129.17</ele>
        <time>2021-08-01T12:17:42.999Z</time>
      </trkpt>
      <trkpt lat="48.8458" lon="1.77712">
        <ele>129.57</ele>
        <time>2021-08-01T12:18:02.999Z</time>
      </trkpt>
      <trkpt lat="48.84598" lon="1.77717">
        <ele>129.72</ele>
        <time>2021-08-01T12:18:19.999Z</time>
      </trkpt>
      <trkpt lat="48.84617" lon="1.77721">
        <ele>129.14</ele>
        <time>2021-08-01T12:18:36.999Z</time>
      </trkpt>
      <trkpt lat="48.84634" lon="1.77729">
        <ele>128.82</ele>
        <time>2021-08-01T12:18:53.999Z</time>
      </trkpt>
      <trkpt lat="48.84653" lon="1.77736">
        <ele>128.67</ele>
        <time>2021-08-01T12:19:12.999Z</time>
      </trkpt>
      <trkpt lat="48.84671" lon="1.77741">
        <ele>129.65</ele>
        <time>2021-08-01T12:19:31.999Z</time>
      </trkpt>
      <trkpt lat="48.84689" lon="1.77747">
        <ele>129.53</ele>
        <time>2021-08-01T12:19:47.999Z</time>
      </trkpt>
      <trkpt lat="48.84707" lon="1.77751">
        <ele>129.97</ele>
        <time>2021-08-01T12:20:04.999Z</time>
      </trkpt>
      <trkpt lat="48.84725" lon="1.77759">
        <ele>129.5</ele>
        <time>2021-08-01T12:20:23.999Z</time>
      </trkpt>
      <trkpt lat="48.84745" lon="1.77761">
        <ele>130.47</ele>
        <time>2021-08-01T12:20:52.999Z</time>
      </trkpt>
      <trkpt lat="48.84761" lon="1.77774">
        <ele>128</ele>
        <time>2021-08-01T12:21:10.999Z</time>
      </trkpt>
      <trkpt lat="48.84775" lon="1.77797">
        <ele>126.58</ele>
        <time>2021-08-01T12:22:09.999Z</time>
      </trkpt>
      <trkpt lat="48.84782" lon="1.77822">
        <ele>118.74</ele>
        <time>2021-08-01T12:24:52.999Z</time>
      </trkpt>
      <trkpt lat="48.84795" lon="1.77843">
        <ele>118.71</ele>
        <time>2021-08-01T12:25:38.999Z</time>
      </trkpt>
      <trkpt lat="48.84799" lon="1.77871">
        <ele>118.77</ele>
        <time>2021-08-01T12:25:54.999Z</time>
      </trkpt>
      <trkpt lat="48.84813" lon="1.7789">
        <ele>119.12</ele>
        <time>2021-08-01T12:26:10.999Z</time>
      </trkpt>
      <trkpt lat="48.84817" lon="1.77918">
        <ele>119.36</ele>
        <time>2021-08-01T12:26:28.999Z</time>
      </trkpt>
      <trkpt lat="48.84826" lon="1.77945">
        <ele>120.14</ele>
        <time>2021-08-01T12:26:46.999Z</time>
      </trkpt>
      <trkpt lat="48.84842" lon="1.77965">
        <ele>121.83</ele>
        <time>2021-08-01T12:27:34.000Z</time>
      </trkpt>
      <trkpt lat="48.84854" lon="1.77986">
        <ele>123.96</ele>
        <time>2021-08-01T12:27:56.000Z</time>
      </trkpt>
      <trkpt lat="48.84871" lon="1.78003">
        <ele>124.43</ele>
        <time>2021-08-01T12:28:11.000Z</time>
      </trkpt>
      <trkpt lat="48.84888" lon="1.78018">
        <ele>124.03</ele>
        <time>2021-08-01T12:28:30.000Z</time>
      </trkpt>
      <trkpt lat="48.84901" lon="1.78039">
        <ele>124.96</ele>
        <time>2021-08-01T12:28:50.000Z</time>
      </trkpt>
      <trkpt lat="48.84916" lon="1.78057">
        <ele>125.46</ele>
        <time>2021-08-01T12:29:08.000Z</time>
      </trkpt>
      <trkpt lat="48.84922" lon="1.78084">
        <ele>117.32</ele>
        <time>2021-08-01T12:30:31.000Z</time>
      </trkpt>
      <trkpt lat="48.84933" lon="1.78105">
        <ele>117.14</ele>
        <time>2021-08-01T12:31:00.000Z</time>
      </trkpt>
      <trkpt lat="48.8495" lon="1.78118">
        <ele>118.27</ele>
        <time>2021-08-01T12:31:28.000Z</time>
      </trkpt>
      <trkpt lat="48.84962" lon="1.78139">
        <ele>119.64</ele>
        <time>2021-08-01T12:31:53.000Z</time>
      </trkpt>
      <trkpt lat="48.84967" lon="1.78165">
        <ele>120.53</ele>
        <time>2021-08-01T12:32:18.000Z</time>
      </trkpt>
      <trkpt lat="48.84955" lon="1.7819">
        <ele>120.67</ele>
        <time>2021-08-01T12:32:35.000Z</time>
      </trkpt>
      <trkpt lat="48.84947" lon="1.78217">
        <ele>121.48</ele>
        <time>2021-08-01T12:32:52.000Z</time>
      </trkpt>
      <trkpt lat="48.84939" lon="1.78243">
        <ele>124.14</ele>
        <time>2021-08-01T12:33:14.000Z</time>
      </trkpt>
      <trkpt lat="48.8493" lon="1.78267">
        <ele>125.3</ele>
        <time>2021-08-01T12:33:30.000Z</time>
      </trkpt>
      <trkpt lat="48.84925" lon="1.78295">
        <ele>127.09</ele>
        <time>2021-08-01T12:33:48.000Z</time>
      </trkpt>
      <trkpt lat="48.84919" lon="1.78322">
        <ele>127.6</ele>
        <time>2021-08-01T12:34:04.000Z</time>
      </trkpt>
      <trkpt lat="48.84912" lon="1.78349">
        <ele>127.46</ele>
        <time>2021-08-01T12:34:22.000Z</time>
      </trkpt>
      <trkpt lat="48.84903" lon="1.78373">
        <ele>129.12</ele>
        <time>2021-08-01T12:34:37.000Z</time>
      </trkpt>
      <trkpt lat="48.8489" lon="1.78396">
        <ele>129.79</ele>
        <time>2021-08-01T12:34:59.000Z</time>
      </trkpt>
      <trkpt lat="48.84881" lon="1.78421">
        <ele>127.8</ele>
        <time>2021-08-01T12:35:21.000Z</time>
      </trkpt>
      <trkpt lat="48.8487" lon="1.78443">
        <ele>129.1</ele>
        <time>2021-08-01T12:40:38.999Z</time>
      </trkpt>
      <trkpt lat="48.8486" lon="1.78468">
        <ele>129.52</ele>
        <time>2021-08-01T12:40:56.999Z</time>
      </trkpt>
      <trkpt lat="48.84847" lon="1.78488">
        <ele>128.31</ele>
        <time>2021-08-01T12:41:16.999Z</time>
      </trkpt>
      <trkpt lat="48.84836" lon="1.7851">
        <ele>128.11</ele>
        <time>2021-08-01T12:41:38.999Z</time>
      </trkpt>
      <trkpt lat="48.84825" lon="1.78533">
        <ele>128.62</ele>
        <time>2021-08-01T12:41:58.999Z</time>
      </trkpt>
      <trkpt lat="48.84816" lon="1.78556">
        <ele>128.35</ele>
        <time>2021-08-01T12:42:13.999Z</time>
      </trkpt>
      <trkpt lat="48.84804" lon="1.78578">
        <ele>128.23</ele>
        <time>2021-08-01T12:42:37.999Z</time>
      </trkpt>
      <trkpt lat="48.84794" lon="1.78602">
        <ele>128.26</ele>
        <time>2021-08-01T12:42:53.999Z</time>
      </trkpt>
      <trkpt lat="48.84784" lon="1.78627">
        <ele>127.9</ele>
        <time>2021-08-01T12:43:09.999Z</time>
      </trkpt>
      <trkpt lat="48.84771" lon="1.78648">
        <ele>128.69</ele>
        <time>2021-08-01T12:43:26.999Z</time>
      </trkpt>
      <trkpt lat="48.84761" lon="1.78672">
        <ele>128.82</ele>
        <time>2021-08-01T12:43:42.999Z</time>
      </trkpt>
      <trkpt lat="48.8475" lon="1.78694">
        <ele>127.39</ele>
        <time>2021-08-01T12:43:57.999Z</time>
      </trkpt>
      <trkpt lat="48.84745" lon="1.78721">
        <ele>127.09</ele>
        <time>2021-08-01T12:44:15.999Z</time>
      </trkpt>
      <trkpt lat="48.84735" lon="1.78745">
        <ele>126.95</ele>
        <time>2021-08-01T12:44:33.999Z</time>
      </trkpt>
      <trkpt lat="48.84726" lon="1.78768">
        <ele>126.74</ele>
        <time>2021-08-01T12:44:49.999Z</time>
      </trkpt>
      <trkpt lat="48.84714" lon="1.7879">
        <ele>126.42</ele>
        <time>2021-08-01T12:45:06.999Z</time>
      </trkpt>
      <trkpt lat="48.84706" lon="1.78818">
        <ele>126.4</ele>
        <time>2021-08-01T12:45:21.999Z</time>
      </trkpt>
      <trkpt lat="48.84693" lon="1.7884">
        <ele>127.11</ele>
        <time>2021-08-01T12:45:37.999Z</time>
      </trkpt>
      <trkpt lat="48.84681" lon="1.78863">
        <ele>125.73</ele>
        <time>2021-08-01T12:45:58.999Z</time>
      </trkpt>
      <trkpt lat="48.84669" lon="1.78885">
        <ele>124.4</ele>
        <time>2021-08-01T12:46:16.999Z</time>
      </trkpt>
      <trkpt lat="48.84655" lon="1.78906">
        <ele>124.16</ele>
        <time>2021-08-01T12:46:34.999Z</time>
      </trkpt>
      <trkpt lat="48.84643" lon="1.78926">
        <ele>123.86</ele>
        <time>2021-08-01T12:46:55.999Z</time>
      </trkpt>
      <trkpt lat="48.84632" lon="1.78951">
        <ele>123.85</ele>
        <time>2021-08-01T12:47:20.999Z</time>
      </trkpt>
      <trkpt lat="48.84623" lon="1.78975">
        <ele>122.02</ele>
        <time>2021-08-01T12:47:37.999Z</time>
      </trkpt>
      <trkpt lat="48.84611" lon="1.78996">
        <ele>120.11</ele>
        <time>2021-08-01T12:47:51.999Z</time>
      </trkpt>
      <trkpt lat="48.846" lon="1.7902">
        <ele>118.53</ele>
        <time>2021-08-01T12:48:08.999Z</time>
      </trkpt>
      <trkpt lat="48.84589" lon="1.79043">
        <ele>117.9</ele>
        <time>2021-08-01T12:48:24.999Z</time>
      </trkpt>
      <trkpt lat="48.8458" lon="1.79066">
        <ele>116.79</ele>
        <time>2021-08-01T12:48:38.999Z</time>
      </trkpt>
      <trkpt lat="48.84569" lon="1.79089">
        <ele>115.43</ele>
        <time>2021-08-01T12:48:54.999Z</time>
      </trkpt>
      <trkpt lat="48.84558" lon="1.79113">
        <ele>113.46</ele>
        <time>2021-08-01T12:49:12.999Z</time>
      </trkpt>
      <trkpt lat="48.84546" lon="1.79135">
        <ele>111.9</ele>
        <time>2021-08-01T12:49:30.000Z</time>
      </trkpt>
      <trkpt lat="48.84539" lon="1.79162">
        <ele>112.35</ele>
        <time>2021-08-01T12:49:46.000Z</time>
      </trkpt>
      <trkpt lat="48.84526" lon="1.79182">
        <ele>114.34</ele>
        <time>2021-08-01T12:50:03.000Z</time>
      </trkpt>
      <trkpt lat="48.84515" lon="1.79205">
        <ele>114.37</ele>
        <time>2021-08-01T12:50:22.000Z</time>
      </trkpt>
      <trkpt lat="48.84504" lon="1.79227">
        <ele>113.63</ele>
        <time>2021-08-01T12:50:38.000Z</time>
      </trkpt>
      <trkpt lat="48.84486" lon="1.79224">
        <ele>113.45</ele>
        <time>2021-08-01T12:50:56.000Z</time>
      </trkpt>
      <trkpt lat="48.84468" lon="1.79216">
        <ele>113.47</ele>
        <time>2021-08-01T12:51:12.000Z</time>
      </trkpt>
      <trkpt lat="48.8445" lon="1.7921">
        <ele>113.39</ele>
        <time>2021-08-01T12:51:26.000Z</time>
      </trkpt>
      <trkpt lat="48.84432" lon="1.79204">
        <ele>113.46</ele>
        <time>2021-08-01T12:51:45.000Z</time>
      </trkpt>
      <trkpt lat="48.84414" lon="1.79195">
        <ele>114.45</ele>
        <time>2021-08-01T12:51:59.000Z</time>
      </trkpt>
      <trkpt lat="48.84397" lon="1.79189">
        <ele>115.09</ele>
        <time>2021-08-01T12:52:15.000Z</time>
      </trkpt>
      <trkpt lat="48.84379" lon="1.7918">
        <ele>114.79</ele>
        <time>2021-08-01T12:52:28.000Z</time>
      </trkpt>
      <trkpt lat="48.84361" lon="1.79174">
        <ele>113.55</ele>
        <time>2021-08-01T12:52:45.000Z</time>
      </trkpt>
      <trkpt lat="48.84343" lon="1.79161">
        <ele>114.9</ele>
        <time>2021-08-01T12:53:03.000Z</time>
      </trkpt>
      <trkpt lat="48.84326" lon="1.79148">
        <ele>116.59</ele>
        <time>2021-08-01T12:53:19.000Z</time>
      </trkpt>
      <trkpt lat="48.84308" lon="1.79143">
        <ele>117.58</ele>
        <time>2021-08-01T12:53:37.000Z</time>
      </trkpt>
      <trkpt lat="48.84292" lon="1.7913">
        <ele>118.19</ele>
        <time>2021-08-01T12:53:56.000Z</time>
      </trkpt>
      <trkpt lat="48.84274" lon="1.79126">
        <ele>117.62</ele>
        <time>2021-08-01T12:54:11.000Z</time>
      </trkpt>
      <trkpt lat="48.84256" lon="1.79117">
        <ele>116.37</ele>
        <time>2021-08-01T12:54:30.000Z</time>
      </trkpt>
      <trkpt lat="48.8424" lon="1.79102">
        <ele>115.96</ele>
        <time>2021-08-01T12:54:46.000Z</time>
      </trkpt>
      <trkpt lat="48.84222" lon="1.79093">
        <ele>116.68</ele>
        <time>2021-08-01T12:55:06.000Z</time>
      </trkpt>
      <trkpt lat="48.84204" lon="1.79087">
        <ele>116.46</ele>
        <time>2021-08-01T12:55:29.000Z</time>
      </trkpt>
      <trkpt lat="48.84192" lon="1.79109">
        <ele>118.62</ele>
        <time>2021-08-01T12:56:20.000Z</time>
      </trkpt>
      <trkpt lat="48.84187" lon="1.79135">
        <ele>116.84</ele>
        <time>2021-08-01T12:56:39.000Z</time>
      </trkpt>
      <trkpt lat="48.84183" lon="1.79162">
        <ele>114.89</ele>
        <time>2021-08-01T12:56:56.000Z</time>
      </trkpt>
      <trkpt lat="48.8418" lon="1.79189">
        <ele>112.12</ele>
        <time>2021-08-01T12:57:16.000Z</time>
      </trkpt>
      <trkpt lat="48.84173" lon="1.79215">
        <ele>112.47</ele>
        <time>2021-08-01T12:57:37.000Z</time>
      </trkpt>
      <trkpt lat="48.84169" lon="1.79242">
        <ele>111.45</ele>
        <time>2021-08-01T12:57:57.000Z</time>
      </trkpt>
      <trkpt lat="48.84164" lon="1.79271">
        <ele>113.3</ele>
        <time>2021-08-01T13:01:54.999Z</time>
      </trkpt>
      <trkpt lat="48.8416" lon="1.79298">
        <ele>112.04</ele>
        <time>2021-08-01T13:02:12.999Z</time>
      </trkpt>
      <trkpt lat="48.84155" lon="1.79326">
        <ele>113.72</ele>
        <time>2021-08-01T13:02:54.999Z</time>
      </trkpt>
      <trkpt lat="48.84151" lon="1.79354">
        <ele>114.39</ele>
        <time>2021-08-01T13:03:10.999Z</time>
      </trkpt>
      <trkpt lat="48.84146" lon="1.79382">
        <ele>112.61</ele>
        <time>2021-08-01T13:03:29.999Z</time>
      </trkpt>
      <trkpt lat="48.84145" lon="1.7941">
        <ele>110.66</ele>
        <time>2021-08-01T13:03:48.999Z</time>
      </trkpt>
      <trkpt lat="48.84137" lon="1.79437">
        <ele>109.26</ele>
        <time>2021-08-01T13:04:02.999Z</time>
      </trkpt>
      <trkpt lat="48.84133" lon="1.79465">
        <ele>106.48</ele>
        <time>2021-08-01T13:04:20.999Z</time>
      </trkpt>
      <trkpt lat="48.84127" lon="1.79493">
        <ele>104.81</ele>
        <time>2021-08-01T13:04:37.999Z</time>
      </trkpt>
      <trkpt lat="48.84123" lon="1.79521">
        <ele>103.58</ele>
        <time>2021-08-01T13:04:53.999Z</time>
      </trkpt>
      <trkpt lat="48.84119" lon="1.79548">
        <ele>103.06</ele>
        <time>2021-08-01T13:05:08.999Z</time>
      </trkpt>
      <trkpt lat="48.84114" lon="1.79575">
        <ele>103.02</ele>
        <time>2021-08-01T13:05:24.999Z</time>
      </trkpt>
      <trkpt lat="48.84109" lon="1.79602">
        <ele>103.39</ele>
        <time>2021-08-01T13:05:46.999Z</time>
      </trkpt>
      <trkpt lat="48.84106" lon="1.7963">
        <ele>103.33</ele>
        <time>2021-08-01T13:06:02.999Z</time>
      </trkpt>
      <trkpt lat="48.841" lon="1.79657">
        <ele>103.89</ele>
        <time>2021-08-01T13:06:17.999Z</time>
      </trkpt>
      <trkpt lat="48.84096" lon="1.79687">
        <ele>104.25</ele>
        <time>2021-08-01T13:06:34.999Z</time>
      </trkpt>
      <trkpt lat="48.84091" lon="1.79715">
        <ele>103.69</ele>
        <time>2021-08-01T13:06:49.999Z</time>
      </trkpt>
      <trkpt lat="48.84087" lon="1.79744">
        <ele>102.55</ele>
        <time>2021-08-01T13:07:08.999Z</time>
      </trkpt>
      <trkpt lat="48.84084" lon="1.79773">
        <ele>101.95</ele>
        <time>2021-08-01T13:07:23.999Z</time>
      </trkpt>
      <trkpt lat="48.84078" lon="1.798">
        <ele>101.49</ele>
        <time>2021-08-01T13:07:40.999Z</time>
      </trkpt>
      <trkpt lat="48.84075" lon="1.79828">
        <ele>98.95</ele>
        <time>2021-08-01T13:07:57.999Z</time>
      </trkpt>
      <trkpt lat="48.84072" lon="1.79857">
        <ele>98.13</ele>
        <time>2021-08-01T13:08:11.999Z</time>
      </trkpt>
      <trkpt lat="48.84066" lon="1.79882">
        <ele>98.13</ele>
        <time>2021-08-01T13:08:26.999Z</time>
      </trkpt>
      <trkpt lat="48.8406" lon="1.79909">
        <ele>97.59</ele>
        <time>2021-08-01T13:08:42.999Z</time>
      </trkpt>
      <trkpt lat="48.84058" lon="1.79937">
        <ele>97.03</ele>
        <time>2021-08-01T13:08:58.999Z</time>
      </trkpt>
      <trkpt lat="48.84046" lon="1.79958">
        <ele>96.71</ele>
        <time>2021-08-01T13:09:44.999Z</time>
      </trkpt>
      <trkpt lat="48.84029" lon="1.79946">
        <ele>98.37</ele>
        <time>2021-08-01T13:09:59.999Z</time>
      </trkpt>
      <trkpt lat="48.84013" lon="1.79927">
        <ele>103.76</ele>
        <time>2021-08-01T13:10:20.999Z</time>
      </trkpt>
      <trkpt lat="48.83996" lon="1.79938">
        <ele>106.28</ele>
        <time>2021-08-01T13:10:34.999Z</time>
      </trkpt>
      <trkpt lat="48.83985" lon="1.7996">
        <ele>105.46</ele>
        <time>2021-08-01T13:10:50.999Z</time>
      </trkpt>
      <trkpt lat="48.8397" lon="1.79977">
        <ele>104.83</ele>
        <time>2021-08-01T13:11:06.999Z</time>
      </trkpt>
      <trkpt lat="48.83953" lon="1.7999">
        <ele>104.83</ele>
        <time>2021-08-01T13:11:23.000Z</time>
      </trkpt>
      <trkpt lat="48.83935" lon="1.80003">
        <ele>104.52</ele>
        <time>2021-08-01T13:11:39.000Z</time>
      </trkpt>
      <trkpt lat="48.83921" lon="1.80019">
        <ele>104.73</ele>
        <time>2021-08-01T13:11:55.000Z</time>
      </trkpt>
      <trkpt lat="48.83902" lon="1.80025">
        <ele>105.79</ele>
        <time>2021-08-01T13:12:14.000Z</time>
      </trkpt>
      <trkpt lat="48.83884" lon="1.80025">
        <ele>106.28</ele>
        <time>2021-08-01T13:12:29.000Z</time>
      </trkpt>
      <trkpt lat="48.83868" lon="1.80039">
        <ele>105.89</ele>
        <time>2021-08-01T13:12:43.000Z</time>
      </trkpt>
      <trkpt lat="48.83853" lon="1.80055">
        <ele>104.3</ele>
        <time>2021-08-01T13:13:00.000Z</time>
      </trkpt>
      <trkpt lat="48.83836" lon="1.8007">
        <ele>102.92</ele>
        <time>2021-08-01T13:13:16.000Z</time>
      </trkpt>
      <trkpt lat="48.83822" lon="1.80087">
        <ele>101.73</ele>
        <time>2021-08-01T13:13:32.000Z</time>
      </trkpt>
      <trkpt lat="48.83805" lon="1.801">
        <ele>101.58</ele>
        <time>2021-08-01T13:13:47.000Z</time>
      </trkpt>
      <trkpt lat="48.83787" lon="1.80113">
        <ele>100.95</ele>
        <time>2021-08-01T13:14:03.000Z</time>
      </trkpt>
      <trkpt lat="48.83769" lon="1.80108">
        <ele>103.37</ele>
        <time>2021-08-01T13:14:24.000Z</time>
      </trkpt>
      <trkpt lat="48.83752" lon="1.80113">
        <ele>104.61</ele>
        <time>2021-08-01T13:14:33.000Z</time>
      </trkpt>
      <trkpt lat="48.83738" lon="1.80131">
        <ele>103.89</ele>
        <time>2021-08-01T13:14:50.000Z</time>
      </trkpt>
      <trkpt lat="48.8373" lon="1.80156">
        <ele>102.42</ele>
        <time>2021-08-01T13:15:05.000Z</time>
      </trkpt>
      <trkpt lat="48.8372" lon="1.80181">
        <ele>100.32</ele>
        <time>2021-08-01T13:15:25.000Z</time>
      </trkpt>
      <trkpt lat="48.83708" lon="1.80204">
        <ele>98.26</ele>
        <time>2021-08-01T13:15:42.000Z</time>
      </trkpt>
      <trkpt lat="48.83695" lon="1.80226">
        <ele>96.57</ele>
        <time>2021-08-01T13:15:58.000Z</time>
      </trkpt>
      <trkpt lat="48.83685" lon="1.80249">
        <ele>95.73</ele>
        <time>2021-08-01T13:16:14.000Z</time>
      </trkpt>
      <trkpt lat="48.83675" lon="1.80273">
        <ele>94.55</ele>
        <time>2021-08-01T13:16:32.000Z</time>
      </trkpt>
      <trkpt lat="48.8367" lon="1.80301">
        <ele>92.7</ele>
        <time>2021-08-01T13:16:51.000Z</time>
      </trkpt>
      <trkpt lat="48.83662" lon="1.80327">
        <ele>89.6</ele>
        <time>2021-08-01T13:17:09.000Z</time>
      </trkpt>
      <trkpt lat="48.83646" lon="1.80341">
        <ele>88.48</ele>
        <time>2021-08-01T13:17:20.000Z</time>
      </trkpt>
      <trkpt lat="48.8363" lon="1.80357">
        <ele>90.64</ele>
        <time>2021-08-01T13:17:38.000Z</time>
      </trkpt>
      <trkpt lat="48.83612" lon="1.80353">
        <ele>92.85</ele>
        <time>2021-08-01T13:18:01.000Z</time>
      </trkpt>
      <trkpt lat="48.83612" lon="1.80381">
        <ele>96.96</ele>
        <time>2021-08-01T13:19:47.000Z</time>
      </trkpt>
      <trkpt lat="48.83624" lon="1.80404">
        <ele>98.61</ele>
        <time>2021-08-01T13:20:03.000Z</time>
      </trkpt>
      <trkpt lat="48.83627" lon="1.80431">
        <ele>98.93</ele>
        <time>2021-08-01T13:20:19.000Z</time>
      </trkpt>
      <trkpt lat="48.83632" lon="1.80459">
        <ele>98.53</ele>
        <time>2021-08-01T13:20:39.000Z</time>
      </trkpt>
      <trkpt lat="48.83635" lon="1.80486">
        <ele>97.58</ele>
        <time>2021-08-01T13:20:55.000Z</time>
      </trkpt>
      <trkpt lat="48.83629" lon="1.80513">
        <ele>96.76</ele>
        <time>2021-08-01T13:21:17.000Z</time>
      </trkpt>
      <trkpt lat="48.83634" lon="1.80487">
        <ele>98.35</ele>
        <time>2021-08-01T13:21:58.000Z</time>
      </trkpt>
      <trkpt lat="48.83648" lon="1.80467">
        <ele>99.47</ele>
        <time>2021-08-01T13:22:23.999Z</time>
      </trkpt>
      <trkpt lat="48.83662" lon="1.80449">
        <ele>98.74</ele>
        <time>2021-08-01T13:22:43.999Z</time>
      </trkpt>
      <trkpt lat="48.83678" lon="1.80437">
        <ele>98.26</ele>
        <time>2021-08-01T13:23:04.999Z</time>
      </trkpt>
      <trkpt lat="48.83696" lon="1.80432">
        <ele>97.86</ele>
        <time>2021-08-01T13:23:40.999Z</time>
      </trkpt>
      <trkpt lat="48.83707" lon="1.80455">
        <ele>100.79</ele>
        <time>2021-08-01T13:23:55.999Z</time>
      </trkpt>
      <trkpt lat="48.83718" lon="1.80479">
        <ele>103.84</ele>
        <time>2021-08-01T13:24:12.999Z</time>
      </trkpt>
      <trkpt lat="48.8373" lon="1.80501">
        <ele>106.64</ele>
        <time>2021-08-01T13:24:29.999Z</time>
      </trkpt>
      <trkpt lat="48.83742" lon="1.80524">
        <ele>109.26</ele>
        <time>2021-08-01T13:24:45.999Z</time>
      </trkpt>
      <trkpt lat="48.83755" lon="1.80543">
        <ele>110.54</ele>
        <time>2021-08-01T13:25:01.999Z</time>
      </trkpt>
      <trkpt lat="48.83765" lon="1.80566">
        <ele>111.34</ele>
        <time>2021-08-01T13:25:19.999Z</time>
      </trkpt>
      <trkpt lat="48.83778" lon="1.80587">
        <ele>110.89</ele>
        <time>2021-08-01T13:25:36.999Z</time>
      </trkpt>
      <trkpt lat="48.83791" lon="1.80607">
        <ele>110.82</ele>
        <time>2021-08-01T13:25:53.999Z</time>
      </trkpt>
      <trkpt lat="48.83804" lon="1.80628">
        <ele>111.87</ele>
        <time>2021-08-01T13:26:09.999Z</time>
      </trkpt>
      <trkpt lat="48.83817" lon="1.80648">
        <ele>113.88</ele>
        <time>2021-08-01T13:26:27.999Z</time>
      </trkpt>
      <trkpt lat="48.83829" lon="1.8067">
        <ele>116</ele>
        <time>2021-08-01T13:26:44.999Z</time>
      </trkpt>
      <trkpt lat="48.83843" lon="1.80687">
        <ele>117.36</ele>
        <time>2021-08-01T13:27:03.999Z</time>
      </trkpt>
      <trkpt lat="48.83854" lon="1.80709">
        <ele>117.67</ele>
        <time>2021-08-01T13:27:22.999Z</time>
      </trkpt>
      <trkpt lat="48.83868" lon="1.80728">
        <ele>116.38</ele>
        <time>2021-08-01T13:27:41.999Z</time>
      </trkpt>
      <trkpt lat="48.8388" lon="1.80749">
        <ele>116.65</ele>
        <time>2021-08-01T13:27:58.999Z</time>
      </trkpt>
      <trkpt lat="48.83892" lon="1.80771">
        <ele>118.56</ele>
        <time>2021-08-01T13:28:16.999Z</time>
      </trkpt>
      <trkpt lat="48.83904" lon="1.80792">
        <ele>120.14</ele>
        <time>2021-08-01T13:28:32.999Z</time>
      </trkpt>
      <trkpt lat="48.83915" lon="1.80817">
        <ele>121.8</ele>
        <time>2021-08-01T13:28:50.999Z</time>
      </trkpt>
      <trkpt lat="48.83929" lon="1.80834">
        <ele>123.13</ele>
        <time>2021-08-01T13:29:08.999Z</time>
      </trkpt>
      <trkpt lat="48.83946" lon="1.80845">
        <ele>122.93</ele>
        <time>2021-08-01T13:29:26.999Z</time>
      </trkpt>
      <trkpt lat="48.83959" lon="1.80863">
        <ele>122.29</ele>
        <time>2021-08-01T13:29:43.999Z</time>
      </trkpt>
      <trkpt lat="48.83974" lon="1.8088">
        <ele>121.44</ele>
        <time>2021-08-01T13:30:01.999Z</time>
      </trkpt>
      <trkpt lat="48.83987" lon="1.80899">
        <ele>120.87</ele>
        <time>2021-08-01T13:30:18.999Z</time>
      </trkpt>
      <trkpt lat="48.84" lon="1.80918">
        <ele>120.75</ele>
        <time>2021-08-01T13:30:39.999Z</time>
      </trkpt>
      <trkpt lat="48.84017" lon="1.80928">
        <ele>120.84</ele>
        <time>2021-08-01T13:30:55.999Z</time>
      </trkpt>
      <trkpt lat="48.84035" lon="1.80929">
        <ele>121.41</ele>
        <time>2021-08-01T13:31:11.999Z</time>
      </trkpt>
      <trkpt lat="48.84052" lon="1.80936">
        <ele>121.67</ele>
        <time>2021-08-01T13:31:31.999Z</time>
      </trkpt>
      <trkpt lat="48.8407" lon="1.8094">
        <ele>122.2</ele>
        <time>2021-08-01T13:31:49.999Z</time>
      </trkpt>
      <trkpt lat="48.8409" lon="1.80948">
        <ele>122.1</ele>
        <time>2021-08-01T13:32:05.999Z</time>
      </trkpt>
      <trkpt lat="48.84106" lon="1.8096">
        <ele>122.72</ele>
        <time>2021-08-01T13:32:23.999Z</time>
      </trkpt>
      <trkpt lat="48.84122" lon="1.80974">
        <ele>123.76</ele>
        <time>2021-08-01T13:32:38.999Z</time>
      </trkpt>
      <trkpt lat="48.84141" lon="1.80978">
        <ele>124.28</ele>
        <time>2021-08-01T13:32:55.000Z</time>
      </trkpt>
      <trkpt lat="48.84159" lon="1.80976">
        <ele>123</ele>
        <time>2021-08-01T13:33:13.000Z</time>
      </trkpt>
      <trkpt lat="48.84178" lon="1.80977">
        <ele>120.64</ele>
        <time>2021-08-01T13:33:30.000Z</time>
      </trkpt>
      <trkpt lat="48.84196" lon="1.80974">
        <ele>119.02</ele>
        <time>2021-08-01T13:33:47.000Z</time>
      </trkpt>
      <trkpt lat="48.84215" lon="1.80973">
        <ele>118.4</ele>
        <time>2021-08-01T13:34:04.000Z</time>
      </trkpt>
      <trkpt lat="48.84234" lon="1.80975">
        <ele>117.95</ele>
        <time>2021-08-01T13:34:21.000Z</time>
      </trkpt>
      <trkpt lat="48.84249" lon="1.80988">
        <ele>118.52</ele>
        <time>2021-08-01T13:34:37.000Z</time>
      </trkpt>
      <trkpt lat="48.84263" lon="1.81009">
        <ele>119.3</ele>
        <time>2021-08-01T13:34:50.000Z</time>
      </trkpt>
      <trkpt lat="48.84275" lon="1.81031">
        <ele>121.24</ele>
        <time>2021-08-01T13:35:06.000Z</time>
      </trkpt>
      <trkpt lat="48.84287" lon="1.81053">
        <ele>124.28</ele>
        <time>2021-08-01T13:35:21.000Z</time>
      </trkpt>
      <trkpt lat="48.84301" lon="1.81071">
        <ele>128</ele>
        <time>2021-08-01T13:35:39.000Z</time>
      </trkpt>
      <trkpt lat="48.84317" lon="1.81085">
        <ele>129.9</ele>
        <time>2021-08-01T13:35:55.000Z</time>
      </trkpt>
      <trkpt lat="48.84336" lon="1.81092">
        <ele>131.13</ele>
        <time>2021-08-01T13:36:15.000Z</time>
      </trkpt>
      <trkpt lat="48.84354" lon="1.81098">
        <ele>130.63</ele>
        <time>2021-08-01T13:36:33.000Z</time>
      </trkpt>
      <trkpt lat="48.84371" lon="1.81108">
        <ele>129.73</ele>
        <time>2021-08-01T13:36:50.000Z</time>
      </trkpt>
      <trkpt lat="48.84386" lon="1.81127">
        <ele>133.02</ele>
        <time>2021-08-01T13:39:54.000Z</time>
      </trkpt>
      <trkpt lat="48.84405" lon="1.81138">
        <ele>132.82</ele>
        <time>2021-08-01T13:40:24.000Z</time>
      </trkpt>
      <trkpt lat="48.84421" lon="1.81154">
        <ele>133.02</ele>
        <time>2021-08-01T13:40:36.000Z</time>
      </trkpt>
      <trkpt lat="48.84437" lon="1.81167">
        <ele>132.91</ele>
        <time>2021-08-01T13:40:56.000Z</time>
      </trkpt>
      <trkpt lat="48.84453" lon="1.81185">
        <ele>132.03</ele>
        <time>2021-08-01T13:41:14.000Z</time>
      </trkpt>
      <trkpt lat="48.84467" lon="1.81203">
        <ele>131.59</ele>
        <time>2021-08-01T13:41:34.000Z</time>
      </trkpt>
      <trkpt lat="48.84484" lon="1.81219">
        <ele>131.33</ele>
        <time>2021-08-01T13:41:51.000Z</time>
      </trkpt>
      <trkpt lat="48.84478" lon="1.81246">
        <ele>132.8</ele>
        <time>2021-08-01T13:42:21.000Z</time>
      </trkpt>
      <trkpt lat="48.84462" lon="1.81262">
        <ele>134.11</ele>
        <time>2021-08-01T13:42:35.000Z</time>
      </trkpt>
      <trkpt lat="48.84446" lon="1.81276">
        <ele>132.9</ele>
        <time>2021-08-01T13:42:55.000Z</time>
      </trkpt>
      <trkpt lat="48.84431" lon="1.81294">
        <ele>133.61</ele>
        <time>2021-08-01T13:43:08.000Z</time>
      </trkpt>
      <trkpt lat="48.84416" lon="1.81311">
        <ele>133.44</ele>
        <time>2021-08-01T13:43:27.000Z</time>
      </trkpt>
      <trkpt lat="48.84405" lon="1.81333">
        <ele>131.13</ele>
        <time>2021-08-01T13:43:42.000Z</time>
      </trkpt>
      <trkpt lat="48.84392" lon="1.81358">
        <ele>131.11</ele>
        <time>2021-08-01T13:44:00.999Z</time>
      </trkpt>
      <trkpt lat="48.84382" lon="1.81381">
        <ele>132.04</ele>
        <time>2021-08-01T13:44:16.999Z</time>
      </trkpt>
      <trkpt lat="48.84372" lon="1.81404">
        <ele>132.11</ele>
        <time>2021-08-01T13:44:33.999Z</time>
      </trkpt>
      <trkpt lat="48.84368" lon="1.81431">
        <ele>131.55</ele>
        <time>2021-08-01T13:44:48.999Z</time>
      </trkpt>
      <trkpt lat="48.84362" lon="1.81457">
        <ele>131.42</ele>
        <time>2021-08-01T13:45:02.999Z</time>
      </trkpt>
      <trkpt lat="48.84345" lon="1.81469">
        <ele>131.43</ele>
        <time>2021-08-01T13:45:17.999Z</time>
      </trkpt>
      <trkpt lat="48.84344" lon="1.81497">
        <ele>130.82</ele>
        <time>2021-08-01T13:45:31.999Z</time>
      </trkpt>
    </trkseg>
  </trk>
</gpx>